<?xml version="1.0" encoding="UTF-8" standalone="no" ?>
<gpx xmlns="http://www.topografix.com/GPX/1/1" xmlns:xsi="http://www.w3.org/2001/XMLSchema-instance" xsi:schemaLocation="http://www.topografix.com/GPX/1/1 http://www.topografix.com/GPX/1/1/gpx.xsd" version="1.1" creator="VisuGPX - https://www.visugpx.com">
  <metadata>
    <name>Paillons et dalles de Berre</name>
    <desc><![CDATA[Trace AlpineQuest 17/02/2013, 09:59:03]]></desc>
  </metadata>
  <trk>
    <name><![CDATA[paillons dalles de berre]]></name>
    <trkseg>
      <trkpt lat="43.8314" lon="7.35193">
        <ele>376.6</ele>
        <time>2013-02-17T08:59:03Z</time>
      </trkpt>
      <trkpt lat="43.83938" lon="7.34793">
        <ele>399.9</ele>
        <time>2013-02-17T09:00:48Z</time>
      </trkpt>
      <trkpt lat="43.83943" lon="7.34792">
        <ele>400.2</ele>
        <time>2013-02-17T09:00:54Z</time>
      </trkpt>
      <trkpt lat="43.83946" lon="7.34795">
        <ele>404.2</ele>
        <time>2013-02-17T09:01:00Z</time>
      </trkpt>
      <trkpt lat="43.83967" lon="7.34794">
        <ele>399.2</ele>
        <time>2013-02-17T09:01:08Z</time>
      </trkpt>
      <trkpt lat="43.83984" lon="7.34795">
        <ele>397</ele>
        <time>2013-02-17T09:01:14Z</time>
      </trkpt>
      <trkpt lat="43.83965" lon="7.34802">
        <ele>400.8</ele>
        <time>2013-02-17T09:01:20Z</time>
      </trkpt>
      <trkpt lat="43.83945" lon="7.348">
        <ele>399.8</ele>
        <time>2013-02-17T09:01:26Z</time>
      </trkpt>
      <trkpt lat="43.83949" lon="7.34795">
        <ele>399.2</ele>
        <time>2013-02-17T09:01:32Z</time>
      </trkpt>
      <trkpt lat="43.83957" lon="7.34794">
        <ele>400.7</ele>
        <time>2013-02-17T09:01:40Z</time>
      </trkpt>
      <trkpt lat="43.8396" lon="7.34787">
        <ele>400.3</ele>
        <time>2013-02-17T09:01:46Z</time>
      </trkpt>
      <trkpt lat="43.83964" lon="7.34783">
        <ele>399.5</ele>
        <time>2013-02-17T09:01:51Z</time>
      </trkpt>
      <trkpt lat="43.8397" lon="7.34781">
        <ele>399.9</ele>
        <time>2013-02-17T09:01:56Z</time>
      </trkpt>
      <trkpt lat="43.83981" lon="7.34777">
        <ele>401.7</ele>
        <time>2013-02-17T09:02:05Z</time>
      </trkpt>
      <trkpt lat="43.83997" lon="7.34776">
        <ele>404</ele>
        <time>2013-02-17T09:02:11Z</time>
      </trkpt>
      <trkpt lat="43.83998" lon="7.34778">
        <ele>404.8</ele>
        <time>2013-02-17T09:02:17Z</time>
      </trkpt>
      <trkpt lat="43.84001" lon="7.34782">
        <ele>406.3</ele>
        <time>2013-02-17T09:02:25Z</time>
      </trkpt>
      <trkpt lat="43.83997" lon="7.34787">
        <ele>407.1</ele>
        <time>2013-02-17T09:02:30Z</time>
      </trkpt>
      <trkpt lat="43.84017" lon="7.34794">
        <ele>407.6</ele>
        <time>2013-02-17T09:02:36Z</time>
      </trkpt>
      <trkpt lat="43.84042" lon="7.34803">
        <ele>409.4</ele>
        <time>2013-02-17T09:02:42Z</time>
      </trkpt>
      <trkpt lat="43.84058" lon="7.34805">
        <ele>409.8</ele>
        <time>2013-02-17T09:02:47Z</time>
      </trkpt>
      <trkpt lat="43.84048" lon="7.34789">
        <ele>410.8</ele>
        <time>2013-02-17T09:02:53Z</time>
      </trkpt>
      <trkpt lat="43.8405" lon="7.34776">
        <ele>412.5</ele>
        <time>2013-02-17T09:02:59Z</time>
      </trkpt>
      <trkpt lat="43.84045" lon="7.34766">
        <ele>414</ele>
        <time>2013-02-17T09:03:04Z</time>
      </trkpt>
      <trkpt lat="43.84055" lon="7.34753">
        <ele>414.7</ele>
        <time>2013-02-17T09:03:10Z</time>
      </trkpt>
      <trkpt lat="43.84063" lon="7.34742">
        <ele>415.5</ele>
        <time>2013-02-17T09:03:15Z</time>
      </trkpt>
      <trkpt lat="43.84057" lon="7.34734">
        <ele>415.9</ele>
        <time>2013-02-17T09:03:20Z</time>
      </trkpt>
      <trkpt lat="43.84062" lon="7.34724">
        <ele>416.8</ele>
        <time>2013-02-17T09:03:27Z</time>
      </trkpt>
      <trkpt lat="43.8406" lon="7.34711">
        <ele>418.9</ele>
        <time>2013-02-17T09:03:33Z</time>
      </trkpt>
      <trkpt lat="43.84054" lon="7.34699">
        <ele>419.9</ele>
        <time>2013-02-17T09:03:38Z</time>
      </trkpt>
      <trkpt lat="43.84054" lon="7.34685">
        <ele>421.2</ele>
        <time>2013-02-17T09:03:45Z</time>
      </trkpt>
      <trkpt lat="43.84056" lon="7.34675">
        <ele>421.9</ele>
        <time>2013-02-17T09:03:52Z</time>
      </trkpt>
      <trkpt lat="43.84063" lon="7.34668">
        <ele>422.5</ele>
        <time>2013-02-17T09:03:58Z</time>
      </trkpt>
      <trkpt lat="43.84068" lon="7.34661">
        <ele>422.9</ele>
        <time>2013-02-17T09:04:03Z</time>
      </trkpt>
      <trkpt lat="43.84088" lon="7.34659">
        <ele>423.9</ele>
        <time>2013-02-17T09:04:08Z</time>
      </trkpt>
      <trkpt lat="43.841" lon="7.34657">
        <ele>425.7</ele>
        <time>2013-02-17T09:04:14Z</time>
      </trkpt>
      <trkpt lat="43.84111" lon="7.34653">
        <ele>426.4</ele>
        <time>2013-02-17T09:04:19Z</time>
      </trkpt>
      <trkpt lat="43.84111" lon="7.34647">
        <ele>427.3</ele>
        <time>2013-02-17T09:04:24Z</time>
      </trkpt>
      <trkpt lat="43.84104" lon="7.34642">
        <ele>428.4</ele>
        <time>2013-02-17T09:04:30Z</time>
      </trkpt>
      <trkpt lat="43.841" lon="7.34631">
        <ele>430.8</ele>
        <time>2013-02-17T09:04:37Z</time>
      </trkpt>
      <trkpt lat="43.84098" lon="7.34615">
        <ele>433.8</ele>
        <time>2013-02-17T09:04:46Z</time>
      </trkpt>
      <trkpt lat="43.84097" lon="7.346">
        <ele>435.7</ele>
        <time>2013-02-17T09:04:54Z</time>
      </trkpt>
      <trkpt lat="43.84091" lon="7.34587">
        <ele>438.1</ele>
        <time>2013-02-17T09:04:59Z</time>
      </trkpt>
      <trkpt lat="43.84092" lon="7.34573">
        <ele>436.7</ele>
        <time>2013-02-17T09:05:04Z</time>
      </trkpt>
      <trkpt lat="43.84099" lon="7.34564">
        <ele>438.2</ele>
        <time>2013-02-17T09:05:10Z</time>
      </trkpt>
      <trkpt lat="43.84108" lon="7.34552">
        <ele>440.1</ele>
        <time>2013-02-17T09:05:18Z</time>
      </trkpt>
      <trkpt lat="43.84123" lon="7.34538">
        <ele>442.3</ele>
        <time>2013-02-17T09:05:29Z</time>
      </trkpt>
      <trkpt lat="43.84135" lon="7.34532">
        <ele>443.4</ele>
        <time>2013-02-17T09:05:35Z</time>
      </trkpt>
      <trkpt lat="43.8414" lon="7.34519">
        <ele>444.2</ele>
        <time>2013-02-17T09:05:41Z</time>
      </trkpt>
      <trkpt lat="43.84148" lon="7.34513">
        <ele>445.2</ele>
        <time>2013-02-17T09:05:46Z</time>
      </trkpt>
      <trkpt lat="43.84154" lon="7.34501">
        <ele>446.3</ele>
        <time>2013-02-17T09:05:52Z</time>
      </trkpt>
      <trkpt lat="43.84158" lon="7.34485">
        <ele>445.2</ele>
        <time>2013-02-17T09:05:58Z</time>
      </trkpt>
      <trkpt lat="43.84166" lon="7.34476">
        <ele>445.5</ele>
        <time>2013-02-17T09:06:03Z</time>
      </trkpt>
      <trkpt lat="43.84172" lon="7.34465">
        <ele>444.9</ele>
        <time>2013-02-17T09:06:08Z</time>
      </trkpt>
      <trkpt lat="43.84183" lon="7.34453">
        <ele>445.4</ele>
        <time>2013-02-17T09:06:14Z</time>
      </trkpt>
      <trkpt lat="43.84193" lon="7.34442">
        <ele>445.2</ele>
        <time>2013-02-17T09:06:20Z</time>
      </trkpt>
      <trkpt lat="43.84201" lon="7.3443">
        <ele>445.1</ele>
        <time>2013-02-17T09:06:26Z</time>
      </trkpt>
      <trkpt lat="43.84217" lon="7.34425">
        <ele>446.6</ele>
        <time>2013-02-17T09:06:32Z</time>
      </trkpt>
      <trkpt lat="43.84225" lon="7.34415">
        <ele>446.5</ele>
        <time>2013-02-17T09:06:39Z</time>
      </trkpt>
      <trkpt lat="43.8423" lon="7.34404">
        <ele>446.9</ele>
        <time>2013-02-17T09:06:45Z</time>
      </trkpt>
      <trkpt lat="43.84239" lon="7.34394">
        <ele>448</ele>
        <time>2013-02-17T09:06:52Z</time>
      </trkpt>
      <trkpt lat="43.84248" lon="7.34387">
        <ele>449</ele>
        <time>2013-02-17T09:06:57Z</time>
      </trkpt>
      <trkpt lat="43.84254" lon="7.34378">
        <ele>449.6</ele>
        <time>2013-02-17T09:07:02Z</time>
      </trkpt>
      <trkpt lat="43.84259" lon="7.34364">
        <ele>450.7</ele>
        <time>2013-02-17T09:07:08Z</time>
      </trkpt>
      <trkpt lat="43.84263" lon="7.3435">
        <ele>451.3</ele>
        <time>2013-02-17T09:07:14Z</time>
      </trkpt>
      <trkpt lat="43.84267" lon="7.34336">
        <ele>452.5</ele>
        <time>2013-02-17T09:07:20Z</time>
      </trkpt>
      <trkpt lat="43.84268" lon="7.34319">
        <ele>453.2</ele>
        <time>2013-02-17T09:07:26Z</time>
      </trkpt>
      <trkpt lat="43.84268" lon="7.343">
        <ele>453.3</ele>
        <time>2013-02-17T09:07:32Z</time>
      </trkpt>
      <trkpt lat="43.84269" lon="7.34284">
        <ele>453.4</ele>
        <time>2013-02-17T09:07:38Z</time>
      </trkpt>
      <trkpt lat="43.84265" lon="7.34265">
        <ele>453.3</ele>
        <time>2013-02-17T09:07:44Z</time>
      </trkpt>
      <trkpt lat="43.84267" lon="7.34249">
        <ele>456.2</ele>
        <time>2013-02-17T09:07:51Z</time>
      </trkpt>
      <trkpt lat="43.84261" lon="7.34239">
        <ele>457.8</ele>
        <time>2013-02-17T09:07:56Z</time>
      </trkpt>
      <trkpt lat="43.84252" lon="7.34226">
        <ele>457.7</ele>
        <time>2013-02-17T09:08:01Z</time>
      </trkpt>
      <trkpt lat="43.8425" lon="7.34219">
        <ele>457.8</ele>
        <time>2013-02-17T09:08:07Z</time>
      </trkpt>
      <trkpt lat="43.8425" lon="7.34206">
        <ele>457.5</ele>
        <time>2013-02-17T09:08:13Z</time>
      </trkpt>
      <trkpt lat="43.84246" lon="7.34185">
        <ele>457.3</ele>
        <time>2013-02-17T09:08:18Z</time>
      </trkpt>
      <trkpt lat="43.84249" lon="7.34164">
        <ele>457.5</ele>
        <time>2013-02-17T09:08:24Z</time>
      </trkpt>
      <trkpt lat="43.84254" lon="7.34151">
        <ele>458.2</ele>
        <time>2013-02-17T09:08:29Z</time>
      </trkpt>
      <trkpt lat="43.84249" lon="7.34127">
        <ele>458.2</ele>
        <time>2013-02-17T09:08:35Z</time>
      </trkpt>
      <trkpt lat="43.84243" lon="7.34111">
        <ele>458.5</ele>
        <time>2013-02-17T09:08:40Z</time>
      </trkpt>
      <trkpt lat="43.84235" lon="7.34089">
        <ele>457.9</ele>
        <time>2013-02-17T09:08:46Z</time>
      </trkpt>
      <trkpt lat="43.84261" lon="7.34065">
        <ele>458</ele>
        <time>2013-02-17T09:08:52Z</time>
      </trkpt>
      <trkpt lat="43.84259" lon="7.34024">
        <ele>461.1</ele>
        <time>2013-02-17T09:08:57Z</time>
      </trkpt>
      <trkpt lat="43.84242" lon="7.33984">
        <ele>461.7</ele>
        <time>2013-02-17T09:09:03Z</time>
      </trkpt>
      <trkpt lat="43.84241" lon="7.33957">
        <ele>462.2</ele>
        <time>2013-02-17T09:09:09Z</time>
      </trkpt>
      <trkpt lat="43.84238" lon="7.33938">
        <ele>462</ele>
        <time>2013-02-17T09:09:15Z</time>
      </trkpt>
      <trkpt lat="43.84239" lon="7.33923">
        <ele>461.4</ele>
        <time>2013-02-17T09:09:21Z</time>
      </trkpt>
      <trkpt lat="43.84232" lon="7.33911">
        <ele>461.9</ele>
        <time>2013-02-17T09:09:27Z</time>
      </trkpt>
      <trkpt lat="43.8423" lon="7.33902">
        <ele>461.4</ele>
        <time>2013-02-17T09:10:01Z</time>
      </trkpt>
      <trkpt lat="43.8423" lon="7.33891">
        <ele>461.8</ele>
        <time>2013-02-17T09:10:06Z</time>
      </trkpt>
      <trkpt lat="43.84226" lon="7.33877">
        <ele>462.6</ele>
        <time>2013-02-17T09:10:11Z</time>
      </trkpt>
      <trkpt lat="43.84217" lon="7.33858">
        <ele>464.7</ele>
        <time>2013-02-17T09:10:17Z</time>
      </trkpt>
      <trkpt lat="43.84212" lon="7.33843">
        <ele>467.8</ele>
        <time>2013-02-17T09:10:24Z</time>
      </trkpt>
      <trkpt lat="43.8421" lon="7.33833">
        <ele>468.9</ele>
        <time>2013-02-17T09:10:30Z</time>
      </trkpt>
      <trkpt lat="43.84207" lon="7.33818">
        <ele>470.5</ele>
        <time>2013-02-17T09:10:36Z</time>
      </trkpt>
      <trkpt lat="43.84204" lon="7.33807">
        <ele>471.5</ele>
        <time>2013-02-17T09:10:42Z</time>
      </trkpt>
      <trkpt lat="43.84202" lon="7.33789">
        <ele>473.1</ele>
        <time>2013-02-17T09:10:51Z</time>
      </trkpt>
      <trkpt lat="43.84195" lon="7.33771">
        <ele>473.7</ele>
        <time>2013-02-17T09:10:57Z</time>
      </trkpt>
      <trkpt lat="43.84189" lon="7.33763">
        <ele>474</ele>
        <time>2013-02-17T09:11:03Z</time>
      </trkpt>
      <trkpt lat="43.84184" lon="7.33755">
        <ele>473.7</ele>
        <time>2013-02-17T09:11:08Z</time>
      </trkpt>
      <trkpt lat="43.84177" lon="7.33746">
        <ele>473.9</ele>
        <time>2013-02-17T09:11:14Z</time>
      </trkpt>
      <trkpt lat="43.84181" lon="7.33726">
        <ele>472.7</ele>
        <time>2013-02-17T09:11:20Z</time>
      </trkpt>
      <trkpt lat="43.84185" lon="7.33708">
        <ele>473.2</ele>
        <time>2013-02-17T09:11:26Z</time>
      </trkpt>
      <trkpt lat="43.84188" lon="7.33689">
        <ele>472.5</ele>
        <time>2013-02-17T09:11:31Z</time>
      </trkpt>
      <trkpt lat="43.84185" lon="7.33654">
        <ele>473</ele>
        <time>2013-02-17T09:11:37Z</time>
      </trkpt>
      <trkpt lat="43.84175" lon="7.33615">
        <ele>472.8</ele>
        <time>2013-02-17T09:11:43Z</time>
      </trkpt>
      <trkpt lat="43.84166" lon="7.33592">
        <ele>472.7</ele>
        <time>2013-02-17T09:12:22Z</time>
      </trkpt>
      <trkpt lat="43.8415" lon="7.33589">
        <ele>472.1</ele>
        <time>2013-02-17T09:12:28Z</time>
      </trkpt>
      <trkpt lat="43.84135" lon="7.33586">
        <ele>472</ele>
        <time>2013-02-17T09:12:33Z</time>
      </trkpt>
      <trkpt lat="43.84122" lon="7.33573">
        <ele>472.6</ele>
        <time>2013-02-17T09:12:39Z</time>
      </trkpt>
      <trkpt lat="43.84111" lon="7.33568">
        <ele>474</ele>
        <time>2013-02-17T09:12:44Z</time>
      </trkpt>
      <trkpt lat="43.84094" lon="7.3357">
        <ele>475.1</ele>
        <time>2013-02-17T09:12:50Z</time>
      </trkpt>
      <trkpt lat="43.8408" lon="7.3358">
        <ele>475.4</ele>
        <time>2013-02-17T09:12:56Z</time>
      </trkpt>
      <trkpt lat="43.8407" lon="7.33578">
        <ele>474.6</ele>
        <time>2013-02-17T09:13:01Z</time>
      </trkpt>
      <trkpt lat="43.84062" lon="7.33571">
        <ele>474.5</ele>
        <time>2013-02-17T09:13:06Z</time>
      </trkpt>
      <trkpt lat="43.84047" lon="7.33577">
        <ele>475</ele>
        <time>2013-02-17T09:13:12Z</time>
      </trkpt>
      <trkpt lat="43.84037" lon="7.33576">
        <ele>475.1</ele>
        <time>2013-02-17T09:13:17Z</time>
      </trkpt>
      <trkpt lat="43.84032" lon="7.33565">
        <ele>474.5</ele>
        <time>2013-02-17T09:13:22Z</time>
      </trkpt>
      <trkpt lat="43.84039" lon="7.33551">
        <ele>474</ele>
        <time>2013-02-17T09:13:28Z</time>
      </trkpt>
      <trkpt lat="43.84052" lon="7.33544">
        <ele>474.2</ele>
        <time>2013-02-17T09:13:34Z</time>
      </trkpt>
      <trkpt lat="43.84061" lon="7.33541">
        <ele>474.9</ele>
        <time>2013-02-17T09:13:40Z</time>
      </trkpt>
      <trkpt lat="43.84058" lon="7.33531">
        <ele>475.5</ele>
        <time>2013-02-17T09:13:48Z</time>
      </trkpt>
      <trkpt lat="43.8405" lon="7.33531">
        <ele>477</ele>
        <time>2013-02-17T09:13:54Z</time>
      </trkpt>
      <trkpt lat="43.84039" lon="7.33537">
        <ele>478.4</ele>
        <time>2013-02-17T09:14:00Z</time>
      </trkpt>
      <trkpt lat="43.8403" lon="7.33535">
        <ele>476.5</ele>
        <time>2013-02-17T09:14:06Z</time>
      </trkpt>
      <trkpt lat="43.84021" lon="7.33526">
        <ele>476.4</ele>
        <time>2013-02-17T09:14:12Z</time>
      </trkpt>
      <trkpt lat="43.84012" lon="7.33519">
        <ele>476.9</ele>
        <time>2013-02-17T09:14:18Z</time>
      </trkpt>
      <trkpt lat="43.84004" lon="7.33515">
        <ele>477.6</ele>
        <time>2013-02-17T09:14:23Z</time>
      </trkpt>
      <trkpt lat="43.83997" lon="7.33506">
        <ele>479.3</ele>
        <time>2013-02-17T09:14:28Z</time>
      </trkpt>
      <trkpt lat="43.83989" lon="7.33493">
        <ele>479.2</ele>
        <time>2013-02-17T09:14:34Z</time>
      </trkpt>
      <trkpt lat="43.83982" lon="7.33478">
        <ele>477.9</ele>
        <time>2013-02-17T09:14:40Z</time>
      </trkpt>
      <trkpt lat="43.83973" lon="7.33468">
        <ele>476.7</ele>
        <time>2013-02-17T09:14:46Z</time>
      </trkpt>
      <trkpt lat="43.83967" lon="7.33476">
        <ele>476.7</ele>
        <time>2013-02-17T09:14:51Z</time>
      </trkpt>
      <trkpt lat="43.83971" lon="7.33493">
        <ele>476.7</ele>
        <time>2013-02-17T09:14:57Z</time>
      </trkpt>
      <trkpt lat="43.83973" lon="7.33509">
        <ele>477</ele>
        <time>2013-02-17T09:15:02Z</time>
      </trkpt>
      <trkpt lat="43.8397" lon="7.33526">
        <ele>477.6</ele>
        <time>2013-02-17T09:15:08Z</time>
      </trkpt>
      <trkpt lat="43.83967" lon="7.33544">
        <ele>478.8</ele>
        <time>2013-02-17T09:15:14Z</time>
      </trkpt>
      <trkpt lat="43.83971" lon="7.33561">
        <ele>479.9</ele>
        <time>2013-02-17T09:15:21Z</time>
      </trkpt>
      <trkpt lat="43.83968" lon="7.33577">
        <ele>481.3</ele>
        <time>2013-02-17T09:15:27Z</time>
      </trkpt>
      <trkpt lat="43.83959" lon="7.33585">
        <ele>482</ele>
        <time>2013-02-17T09:15:32Z</time>
      </trkpt>
      <trkpt lat="43.8395" lon="7.33595">
        <ele>482</ele>
        <time>2013-02-17T09:15:38Z</time>
      </trkpt>
      <trkpt lat="43.8395" lon="7.33613">
        <ele>483</ele>
        <time>2013-02-17T09:15:44Z</time>
      </trkpt>
      <trkpt lat="43.83949" lon="7.33629">
        <ele>484.2</ele>
        <time>2013-02-17T09:15:50Z</time>
      </trkpt>
      <trkpt lat="43.83943" lon="7.33646">
        <ele>481.7</ele>
        <time>2013-02-17T09:15:57Z</time>
      </trkpt>
      <trkpt lat="43.83933" lon="7.33658">
        <ele>481.5</ele>
        <time>2013-02-17T09:16:04Z</time>
      </trkpt>
      <trkpt lat="43.83926" lon="7.33671">
        <ele>481.4</ele>
        <time>2013-02-17T09:16:10Z</time>
      </trkpt>
      <trkpt lat="43.83917" lon="7.33679">
        <ele>480.9</ele>
        <time>2013-02-17T09:16:15Z</time>
      </trkpt>
      <trkpt lat="43.83908" lon="7.3369">
        <ele>481.2</ele>
        <time>2013-02-17T09:16:21Z</time>
      </trkpt>
      <trkpt lat="43.83901" lon="7.33702">
        <ele>481.1</ele>
        <time>2013-02-17T09:16:27Z</time>
      </trkpt>
      <trkpt lat="43.83895" lon="7.33712">
        <ele>481.8</ele>
        <time>2013-02-17T09:16:32Z</time>
      </trkpt>
      <trkpt lat="43.83884" lon="7.33725">
        <ele>482.6</ele>
        <time>2013-02-17T09:16:38Z</time>
      </trkpt>
      <trkpt lat="43.83879" lon="7.33743">
        <ele>484.9</ele>
        <time>2013-02-17T09:16:44Z</time>
      </trkpt>
      <trkpt lat="43.83884" lon="7.33751">
        <ele>485.9</ele>
        <time>2013-02-17T09:16:50Z</time>
      </trkpt>
      <trkpt lat="43.83893" lon="7.33745">
        <ele>487.3</ele>
        <time>2013-02-17T09:16:57Z</time>
      </trkpt>
      <trkpt lat="43.83901" lon="7.33736">
        <ele>488.6</ele>
        <time>2013-02-17T09:17:02Z</time>
      </trkpt>
      <trkpt lat="43.83909" lon="7.33728">
        <ele>489.6</ele>
        <time>2013-02-17T09:17:08Z</time>
      </trkpt>
      <trkpt lat="43.83916" lon="7.33716">
        <ele>491.8</ele>
        <time>2013-02-17T09:17:14Z</time>
      </trkpt>
      <trkpt lat="43.83924" lon="7.33726">
        <ele>492</ele>
        <time>2013-02-17T09:17:20Z</time>
      </trkpt>
      <trkpt lat="43.83922" lon="7.3374">
        <ele>489.9</ele>
        <time>2013-02-17T09:17:26Z</time>
      </trkpt>
      <trkpt lat="43.83919" lon="7.33752">
        <ele>491.6</ele>
        <time>2013-02-17T09:17:32Z</time>
      </trkpt>
      <trkpt lat="43.8391" lon="7.33761">
        <ele>494</ele>
        <time>2013-02-17T09:17:38Z</time>
      </trkpt>
      <trkpt lat="43.83902" lon="7.33768">
        <ele>495.4</ele>
        <time>2013-02-17T09:17:44Z</time>
      </trkpt>
      <trkpt lat="43.83895" lon="7.33777">
        <ele>495.9</ele>
        <time>2013-02-17T09:17:50Z</time>
      </trkpt>
      <trkpt lat="43.83886" lon="7.33783">
        <ele>497.2</ele>
        <time>2013-02-17T09:17:56Z</time>
      </trkpt>
      <trkpt lat="43.83875" lon="7.33786">
        <ele>498.4</ele>
        <time>2013-02-17T09:18:02Z</time>
      </trkpt>
      <trkpt lat="43.83868" lon="7.33788">
        <ele>500</ele>
        <time>2013-02-17T09:18:08Z</time>
      </trkpt>
      <trkpt lat="43.83857" lon="7.33794">
        <ele>500.9</ele>
        <time>2013-02-17T09:18:14Z</time>
      </trkpt>
      <trkpt lat="43.83849" lon="7.338">
        <ele>502</ele>
        <time>2013-02-17T09:18:20Z</time>
      </trkpt>
      <trkpt lat="43.83841" lon="7.33807">
        <ele>502.5</ele>
        <time>2013-02-17T09:18:26Z</time>
      </trkpt>
      <trkpt lat="43.83833" lon="7.33812">
        <ele>503.3</ele>
        <time>2013-02-17T09:18:32Z</time>
      </trkpt>
      <trkpt lat="43.83821" lon="7.33809">
        <ele>509.4</ele>
        <time>2013-02-17T09:19:29Z</time>
      </trkpt>
      <trkpt lat="43.83816" lon="7.33793">
        <ele>509</ele>
        <time>2013-02-17T09:19:35Z</time>
      </trkpt>
      <trkpt lat="43.83814" lon="7.33778">
        <ele>509.9</ele>
        <time>2013-02-17T09:19:41Z</time>
      </trkpt>
      <trkpt lat="43.83813" lon="7.33764">
        <ele>509.8</ele>
        <time>2013-02-17T09:19:47Z</time>
      </trkpt>
      <trkpt lat="43.83808" lon="7.33756">
        <ele>510.5</ele>
        <time>2013-02-17T09:19:52Z</time>
      </trkpt>
      <trkpt lat="43.83797" lon="7.33758">
        <ele>510.4</ele>
        <time>2013-02-17T09:20:00Z</time>
      </trkpt>
      <trkpt lat="43.83789" lon="7.33766">
        <ele>511.5</ele>
        <time>2013-02-17T09:20:07Z</time>
      </trkpt>
      <trkpt lat="43.8378" lon="7.33766">
        <ele>512.5</ele>
        <time>2013-02-17T09:20:12Z</time>
      </trkpt>
      <trkpt lat="43.8377" lon="7.33763">
        <ele>513.3</ele>
        <time>2013-02-17T09:20:19Z</time>
      </trkpt>
      <trkpt lat="43.83762" lon="7.33776">
        <ele>514.8</ele>
        <time>2013-02-17T09:20:28Z</time>
      </trkpt>
      <trkpt lat="43.83755" lon="7.33788">
        <ele>515.6</ele>
        <time>2013-02-17T09:20:34Z</time>
      </trkpt>
      <trkpt lat="43.83752" lon="7.33797">
        <ele>517</ele>
        <time>2013-02-17T09:20:39Z</time>
      </trkpt>
      <trkpt lat="43.83748" lon="7.33809">
        <ele>518.2</ele>
        <time>2013-02-17T09:20:44Z</time>
      </trkpt>
      <trkpt lat="43.83741" lon="7.3382">
        <ele>519.3</ele>
        <time>2013-02-17T09:20:50Z</time>
      </trkpt>
      <trkpt lat="43.83734" lon="7.33818">
        <ele>522</ele>
        <time>2013-02-17T09:22:22Z</time>
      </trkpt>
      <trkpt lat="43.83724" lon="7.33808">
        <ele>522.3</ele>
        <time>2013-02-17T09:22:28Z</time>
      </trkpt>
      <trkpt lat="43.83716" lon="7.33801">
        <ele>523.4</ele>
        <time>2013-02-17T09:22:34Z</time>
      </trkpt>
      <trkpt lat="43.83705" lon="7.33788">
        <ele>525.1</ele>
        <time>2013-02-17T09:22:41Z</time>
      </trkpt>
      <trkpt lat="43.83697" lon="7.33777">
        <ele>526.8</ele>
        <time>2013-02-17T09:23:04Z</time>
      </trkpt>
      <trkpt lat="43.83691" lon="7.33768">
        <ele>528.1</ele>
        <time>2013-02-17T09:23:10Z</time>
      </trkpt>
      <trkpt lat="43.83677" lon="7.33732">
        <ele>532.2</ele>
        <time>2013-02-17T09:23:48Z</time>
      </trkpt>
      <trkpt lat="43.83662" lon="7.33718">
        <ele>534</ele>
        <time>2013-02-17T09:24:19Z</time>
      </trkpt>
      <trkpt lat="43.83654" lon="7.33715">
        <ele>535</ele>
        <time>2013-02-17T09:24:26Z</time>
      </trkpt>
      <trkpt lat="43.83646" lon="7.33701">
        <ele>536.5</ele>
        <time>2013-02-17T09:24:46Z</time>
      </trkpt>
      <trkpt lat="43.8364" lon="7.33687">
        <ele>538.1</ele>
        <time>2013-02-17T09:24:53Z</time>
      </trkpt>
      <trkpt lat="43.83632" lon="7.33678">
        <ele>538.4</ele>
        <time>2013-02-17T09:24:59Z</time>
      </trkpt>
      <trkpt lat="43.83626" lon="7.33669">
        <ele>539.4</ele>
        <time>2013-02-17T09:25:05Z</time>
      </trkpt>
      <trkpt lat="43.83623" lon="7.33658">
        <ele>537</ele>
        <time>2013-02-17T09:25:11Z</time>
      </trkpt>
      <trkpt lat="43.83611" lon="7.33627">
        <ele>551.4</ele>
        <time>2013-02-17T09:26:48Z</time>
      </trkpt>
      <trkpt lat="43.83607" lon="7.336">
        <ele>560.2</ele>
        <time>2013-02-17T09:28:26Z</time>
      </trkpt>
      <trkpt lat="43.83608" lon="7.33572">
        <ele>561.7</ele>
        <time>2013-02-17T09:30:52Z</time>
      </trkpt>
      <trkpt lat="43.83606" lon="7.33569">
        <ele>562</ele>
        <time>2013-02-17T09:31:00Z</time>
      </trkpt>
      <trkpt lat="43.83604" lon="7.33547">
        <ele>567.2</ele>
        <time>2013-02-17T09:31:52Z</time>
      </trkpt>
      <trkpt lat="43.83599" lon="7.33537">
        <ele>567.9</ele>
        <time>2013-02-17T09:32:07Z</time>
      </trkpt>
      <trkpt lat="43.83599" lon="7.33507">
        <ele>578</ele>
        <time>2013-02-17T09:32:51Z</time>
      </trkpt>
      <trkpt lat="43.83593" lon="7.33479">
        <ele>588.4</ele>
        <time>2013-02-17T09:34:19Z</time>
      </trkpt>
      <trkpt lat="43.83604" lon="7.3347">
        <ele>590.5</ele>
        <time>2013-02-17T09:34:26Z</time>
      </trkpt>
      <trkpt lat="43.83618" lon="7.33425">
        <ele>598</ele>
        <time>2013-02-17T09:36:15Z</time>
      </trkpt>
      <trkpt lat="43.8362" lon="7.33376">
        <ele>610.8</ele>
        <time>2013-02-17T09:38:56Z</time>
      </trkpt>
      <trkpt lat="43.8361" lon="7.33361">
        <ele>625.6</ele>
        <time>2013-02-17T09:43:55Z</time>
      </trkpt>
      <trkpt lat="43.83601" lon="7.33381">
        <ele>629.1</ele>
        <time>2013-02-17T09:44:22Z</time>
      </trkpt>
      <trkpt lat="43.83588" lon="7.33338">
        <ele>642.5</ele>
        <time>2013-02-17T09:46:50Z</time>
      </trkpt>
      <trkpt lat="43.83592" lon="7.33323">
        <ele>645.6</ele>
        <time>2013-02-17T09:47:16Z</time>
      </trkpt>
      <trkpt lat="43.83596" lon="7.33287">
        <ele>650.5</ele>
        <time>2013-02-17T09:48:00Z</time>
      </trkpt>
      <trkpt lat="43.83596" lon="7.33269">
        <ele>649.2</ele>
        <time>2013-02-17T09:48:35Z</time>
      </trkpt>
      <trkpt lat="43.8359" lon="7.3322">
        <ele>656.4</ele>
        <time>2013-02-17T09:49:48Z</time>
      </trkpt>
      <trkpt lat="43.8359" lon="7.33169">
        <ele>663.7</ele>
        <time>2013-02-17T09:50:42Z</time>
      </trkpt>
      <trkpt lat="43.83565" lon="7.33139">
        <ele>669.3</ele>
        <time>2013-02-17T09:51:41Z</time>
      </trkpt>
      <trkpt lat="43.83552" lon="7.33115">
        <ele>674.1</ele>
        <time>2013-02-17T09:53:24Z</time>
      </trkpt>
      <trkpt lat="43.83541" lon="7.33101">
        <ele>676.4</ele>
        <time>2013-02-17T09:54:04Z</time>
      </trkpt>
      <trkpt lat="43.83524" lon="7.33094">
        <ele>679.8</ele>
        <time>2013-02-17T09:54:16Z</time>
      </trkpt>
      <trkpt lat="43.83515" lon="7.33087">
        <ele>679.8</ele>
        <time>2013-02-17T09:54:23Z</time>
      </trkpt>
      <trkpt lat="43.8351" lon="7.33078">
        <ele>680</ele>
        <time>2013-02-17T09:54:28Z</time>
      </trkpt>
      <trkpt lat="43.83504" lon="7.33067">
        <ele>680.2</ele>
        <time>2013-02-17T09:54:33Z</time>
      </trkpt>
      <trkpt lat="43.83494" lon="7.33052">
        <ele>679.6</ele>
        <time>2013-02-17T09:54:39Z</time>
      </trkpt>
      <trkpt lat="43.83487" lon="7.33039">
        <ele>679.3</ele>
        <time>2013-02-17T09:54:44Z</time>
      </trkpt>
      <trkpt lat="43.8348" lon="7.33023">
        <ele>679.8</ele>
        <time>2013-02-17T09:54:50Z</time>
      </trkpt>
      <trkpt lat="43.83477" lon="7.33006">
        <ele>679.2</ele>
        <time>2013-02-17T09:54:56Z</time>
      </trkpt>
      <trkpt lat="43.83464" lon="7.32947">
        <ele>680.1</ele>
        <time>2013-02-17T09:56:22Z</time>
      </trkpt>
      <trkpt lat="43.83428" lon="7.32939">
        <ele>684.7</ele>
        <time>2013-02-17T09:57:35Z</time>
      </trkpt>
      <trkpt lat="43.83418" lon="7.32939">
        <ele>686.5</ele>
        <time>2013-02-17T09:57:41Z</time>
      </trkpt>
      <trkpt lat="43.8341" lon="7.32939">
        <ele>686.5</ele>
        <time>2013-02-17T09:57:46Z</time>
      </trkpt>
      <trkpt lat="43.83401" lon="7.32928">
        <ele>686.6</ele>
        <time>2013-02-17T09:57:53Z</time>
      </trkpt>
      <trkpt lat="43.83393" lon="7.32919">
        <ele>687.4</ele>
        <time>2013-02-17T09:57:58Z</time>
      </trkpt>
      <trkpt lat="43.83384" lon="7.32908">
        <ele>687.8</ele>
        <time>2013-02-17T09:58:03Z</time>
      </trkpt>
      <trkpt lat="43.83375" lon="7.32896">
        <ele>687.8</ele>
        <time>2013-02-17T09:58:09Z</time>
      </trkpt>
      <trkpt lat="43.83365" lon="7.32893">
        <ele>688</ele>
        <time>2013-02-17T09:58:14Z</time>
      </trkpt>
      <trkpt lat="43.83352" lon="7.32889">
        <ele>689.1</ele>
        <time>2013-02-17T09:58:20Z</time>
      </trkpt>
      <trkpt lat="43.83342" lon="7.32881">
        <ele>689.6</ele>
        <time>2013-02-17T09:58:26Z</time>
      </trkpt>
      <trkpt lat="43.83334" lon="7.32873">
        <ele>690.9</ele>
        <time>2013-02-17T09:58:32Z</time>
      </trkpt>
      <trkpt lat="43.83314" lon="7.32847">
        <ele>699.3</ele>
        <time>2013-02-17T10:00:09Z</time>
      </trkpt>
      <trkpt lat="43.83307" lon="7.3285">
        <ele>699.6</ele>
        <time>2013-02-17T10:00:14Z</time>
      </trkpt>
      <trkpt lat="43.83296" lon="7.32847">
        <ele>701.2</ele>
        <time>2013-02-17T10:00:22Z</time>
      </trkpt>
      <trkpt lat="43.83285" lon="7.32851">
        <ele>701.9</ele>
        <time>2013-02-17T10:00:29Z</time>
      </trkpt>
      <trkpt lat="43.83278" lon="7.32859">
        <ele>702.8</ele>
        <time>2013-02-17T10:00:34Z</time>
      </trkpt>
      <trkpt lat="43.83271" lon="7.32868">
        <ele>703.3</ele>
        <time>2013-02-17T10:00:39Z</time>
      </trkpt>
      <trkpt lat="43.83263" lon="7.32874">
        <ele>703</ele>
        <time>2013-02-17T10:00:44Z</time>
      </trkpt>
      <trkpt lat="43.83252" lon="7.32872">
        <ele>701.9</ele>
        <time>2013-02-17T10:00:50Z</time>
      </trkpt>
      <trkpt lat="43.83232" lon="7.32864">
        <ele>701.8</ele>
        <time>2013-02-17T10:00:55Z</time>
      </trkpt>
      <trkpt lat="43.83203" lon="7.3286">
        <ele>701.4</ele>
        <time>2013-02-17T10:01:01Z</time>
      </trkpt>
      <trkpt lat="43.83195" lon="7.32852">
        <ele>700.5</ele>
        <time>2013-02-17T10:01:06Z</time>
      </trkpt>
      <trkpt lat="43.83176" lon="7.3284">
        <ele>701.7</ele>
        <time>2013-02-17T10:01:19Z</time>
      </trkpt>
      <trkpt lat="43.83166" lon="7.32845">
        <ele>703.1</ele>
        <time>2013-02-17T10:01:27Z</time>
      </trkpt>
      <trkpt lat="43.83168" lon="7.32885">
        <ele>710</ele>
        <time>2013-02-17T10:02:14Z</time>
      </trkpt>
      <trkpt lat="43.83156" lon="7.32897">
        <ele>711.5</ele>
        <time>2013-02-17T10:02:20Z</time>
      </trkpt>
      <trkpt lat="43.83144" lon="7.32909">
        <ele>714.2</ele>
        <time>2013-02-17T10:02:27Z</time>
      </trkpt>
      <trkpt lat="43.83132" lon="7.32923">
        <ele>716.1</ele>
        <time>2013-02-17T10:02:33Z</time>
      </trkpt>
      <trkpt lat="43.83122" lon="7.32939">
        <ele>718.5</ele>
        <time>2013-02-17T10:02:39Z</time>
      </trkpt>
      <trkpt lat="43.83099" lon="7.32962">
        <ele>717.8</ele>
        <time>2013-02-17T10:03:38Z</time>
      </trkpt>
      <trkpt lat="43.83087" lon="7.32968">
        <ele>718.7</ele>
        <time>2013-02-17T10:03:59Z</time>
      </trkpt>
      <trkpt lat="43.83076" lon="7.32966">
        <ele>718.5</ele>
        <time>2013-02-17T10:04:17Z</time>
      </trkpt>
      <trkpt lat="43.83074" lon="7.3296">
        <ele>718.5</ele>
        <time>2013-02-17T10:04:52Z</time>
      </trkpt>
      <trkpt lat="43.83071" lon="7.32965">
        <ele>718.5</ele>
        <time>2013-02-17T10:05:19Z</time>
      </trkpt>
      <trkpt lat="43.83059" lon="7.32963">
        <ele>713</ele>
        <time>2013-02-17T10:05:26Z</time>
      </trkpt>
      <trkpt lat="43.83051" lon="7.32978">
        <ele>722.8</ele>
        <time>2013-02-17T10:06:22Z</time>
      </trkpt>
      <trkpt lat="43.83036" lon="7.32971">
        <ele>723.7</ele>
        <time>2013-02-17T10:06:55Z</time>
      </trkpt>
      <trkpt lat="43.83031" lon="7.32971">
        <ele>724.2</ele>
        <time>2013-02-17T10:07:00Z</time>
      </trkpt>
      <trkpt lat="43.83043" lon="7.32961">
        <ele>725</ele>
        <time>2013-02-17T10:07:12Z</time>
      </trkpt>
      <trkpt lat="43.83045" lon="7.32954">
        <ele>725.1</ele>
        <time>2013-02-17T10:07:19Z</time>
      </trkpt>
      <trkpt lat="43.83041" lon="7.3296">
        <ele>725</ele>
        <time>2013-02-17T10:07:27Z</time>
      </trkpt>
      <trkpt lat="43.83033" lon="7.32969">
        <ele>725.3</ele>
        <time>2013-02-17T10:07:32Z</time>
      </trkpt>
      <trkpt lat="43.83042" lon="7.32942">
        <ele>723.8</ele>
        <time>2013-02-17T10:07:45Z</time>
      </trkpt>
      <trkpt lat="43.83053" lon="7.32942">
        <ele>723.8</ele>
        <time>2013-02-17T10:07:50Z</time>
      </trkpt>
      <trkpt lat="43.83045" lon="7.32939">
        <ele>719.1</ele>
        <time>2013-02-17T10:08:23Z</time>
      </trkpt>
      <trkpt lat="43.83045" lon="7.32928">
        <ele>719.7</ele>
        <time>2013-02-17T10:08:29Z</time>
      </trkpt>
      <trkpt lat="43.83046" lon="7.32915">
        <ele>720.6</ele>
        <time>2013-02-17T10:08:34Z</time>
      </trkpt>
      <trkpt lat="43.83054" lon="7.32906">
        <ele>721.1</ele>
        <time>2013-02-17T10:08:52Z</time>
      </trkpt>
      <trkpt lat="43.83064" lon="7.32909">
        <ele>727.8</ele>
        <time>2013-02-17T10:08:57Z</time>
      </trkpt>
      <trkpt lat="43.83065" lon="7.3292">
        <ele>738.2</ele>
        <time>2013-02-17T10:09:07Z</time>
      </trkpt>
      <trkpt lat="43.83056" lon="7.32908">
        <ele>735</ele>
        <time>2013-02-17T10:09:19Z</time>
      </trkpt>
      <trkpt lat="43.83064" lon="7.3287">
        <ele>735.8</ele>
        <time>2013-02-17T10:09:45Z</time>
      </trkpt>
      <trkpt lat="43.83059" lon="7.32863">
        <ele>738.4</ele>
        <time>2013-02-17T10:09:50Z</time>
      </trkpt>
      <trkpt lat="43.83077" lon="7.32855">
        <ele>742.5</ele>
        <time>2013-02-17T10:16:15Z</time>
      </trkpt>
      <trkpt lat="43.83086" lon="7.32859">
        <ele>743.7</ele>
        <time>2013-02-17T10:16:21Z</time>
      </trkpt>
      <trkpt lat="43.83095" lon="7.32847">
        <ele>744.6</ele>
        <time>2013-02-17T10:16:27Z</time>
      </trkpt>
      <trkpt lat="43.83105" lon="7.32826">
        <ele>745.2</ele>
        <time>2013-02-17T10:16:33Z</time>
      </trkpt>
      <trkpt lat="43.83113" lon="7.32801">
        <ele>745.5</ele>
        <time>2013-02-17T10:16:39Z</time>
      </trkpt>
      <trkpt lat="43.83116" lon="7.3278">
        <ele>744.5</ele>
        <time>2013-02-17T10:16:44Z</time>
      </trkpt>
      <trkpt lat="43.83118" lon="7.32752">
        <ele>744.2</ele>
        <time>2013-02-17T10:16:50Z</time>
      </trkpt>
      <trkpt lat="43.83118" lon="7.32735">
        <ele>742.9</ele>
        <time>2013-02-17T10:16:55Z</time>
      </trkpt>
      <trkpt lat="43.83116" lon="7.32713">
        <ele>742.2</ele>
        <time>2013-02-17T10:17:01Z</time>
      </trkpt>
      <trkpt lat="43.83119" lon="7.32686">
        <ele>743.7</ele>
        <time>2013-02-17T10:17:09Z</time>
      </trkpt>
      <trkpt lat="43.83122" lon="7.32671">
        <ele>744.6</ele>
        <time>2013-02-17T10:17:15Z</time>
      </trkpt>
      <trkpt lat="43.83128" lon="7.32659">
        <ele>745.9</ele>
        <time>2013-02-17T10:17:23Z</time>
      </trkpt>
      <trkpt lat="43.83131" lon="7.32645">
        <ele>746</ele>
        <time>2013-02-17T10:17:29Z</time>
      </trkpt>
      <trkpt lat="43.83135" lon="7.32633">
        <ele>745.7</ele>
        <time>2013-02-17T10:17:35Z</time>
      </trkpt>
      <trkpt lat="43.83141" lon="7.32615">
        <ele>746.4</ele>
        <time>2013-02-17T10:17:40Z</time>
      </trkpt>
      <trkpt lat="43.83141" lon="7.32597">
        <ele>746.9</ele>
        <time>2013-02-17T10:17:45Z</time>
      </trkpt>
      <trkpt lat="43.83141" lon="7.3258">
        <ele>748.3</ele>
        <time>2013-02-17T10:17:50Z</time>
      </trkpt>
      <trkpt lat="43.83139" lon="7.32564">
        <ele>748.2</ele>
        <time>2013-02-17T10:17:55Z</time>
      </trkpt>
      <trkpt lat="43.8314" lon="7.32551">
        <ele>747.7</ele>
        <time>2013-02-17T10:18:00Z</time>
      </trkpt>
      <trkpt lat="43.83137" lon="7.32537">
        <ele>747.5</ele>
        <time>2013-02-17T10:18:05Z</time>
      </trkpt>
      <trkpt lat="43.83132" lon="7.32517">
        <ele>747.5</ele>
        <time>2013-02-17T10:18:11Z</time>
      </trkpt>
      <trkpt lat="43.83128" lon="7.32501">
        <ele>747.8</ele>
        <time>2013-02-17T10:18:16Z</time>
      </trkpt>
      <trkpt lat="43.83123" lon="7.32483">
        <ele>747.9</ele>
        <time>2013-02-17T10:18:21Z</time>
      </trkpt>
      <trkpt lat="43.83119" lon="7.3246">
        <ele>748.5</ele>
        <time>2013-02-17T10:18:27Z</time>
      </trkpt>
      <trkpt lat="43.83119" lon="7.32443">
        <ele>748.4</ele>
        <time>2013-02-17T10:18:32Z</time>
      </trkpt>
      <trkpt lat="43.83121" lon="7.32424">
        <ele>748.9</ele>
        <time>2013-02-17T10:18:38Z</time>
      </trkpt>
      <trkpt lat="43.83132" lon="7.324">
        <ele>750.5</ele>
        <time>2013-02-17T10:18:44Z</time>
      </trkpt>
      <trkpt lat="43.83148" lon="7.32375">
        <ele>751.8</ele>
        <time>2013-02-17T10:18:50Z</time>
      </trkpt>
      <trkpt lat="43.83161" lon="7.32352">
        <ele>751.3</ele>
        <time>2013-02-17T10:18:56Z</time>
      </trkpt>
      <trkpt lat="43.83177" lon="7.32331">
        <ele>751.8</ele>
        <time>2013-02-17T10:19:02Z</time>
      </trkpt>
      <trkpt lat="43.83196" lon="7.32309">
        <ele>752.3</ele>
        <time>2013-02-17T10:19:08Z</time>
      </trkpt>
      <trkpt lat="43.83214" lon="7.32295">
        <ele>752.4</ele>
        <time>2013-02-17T10:19:13Z</time>
      </trkpt>
      <trkpt lat="43.83231" lon="7.32275">
        <ele>752.2</ele>
        <time>2013-02-17T10:19:19Z</time>
      </trkpt>
      <trkpt lat="43.83245" lon="7.32259">
        <ele>752</ele>
        <time>2013-02-17T10:19:24Z</time>
      </trkpt>
      <trkpt lat="43.83261" lon="7.32243">
        <ele>752.8</ele>
        <time>2013-02-17T10:19:30Z</time>
      </trkpt>
      <trkpt lat="43.83275" lon="7.32226">
        <ele>752.3</ele>
        <time>2013-02-17T10:19:35Z</time>
      </trkpt>
      <trkpt lat="43.83292" lon="7.32206">
        <ele>752</ele>
        <time>2013-02-17T10:19:41Z</time>
      </trkpt>
      <trkpt lat="43.83309" lon="7.32186">
        <ele>751.5</ele>
        <time>2013-02-17T10:19:47Z</time>
      </trkpt>
      <trkpt lat="43.83327" lon="7.3217">
        <ele>751.4</ele>
        <time>2013-02-17T10:19:53Z</time>
      </trkpt>
      <trkpt lat="43.83343" lon="7.32153">
        <ele>751.6</ele>
        <time>2013-02-17T10:19:58Z</time>
      </trkpt>
      <trkpt lat="43.83359" lon="7.32139">
        <ele>752.3</ele>
        <time>2013-02-17T10:20:03Z</time>
      </trkpt>
      <trkpt lat="43.8338" lon="7.32124">
        <ele>751.6</ele>
        <time>2013-02-17T10:20:09Z</time>
      </trkpt>
      <trkpt lat="43.83396" lon="7.32114">
        <ele>752.6</ele>
        <time>2013-02-17T10:20:14Z</time>
      </trkpt>
      <trkpt lat="43.83417" lon="7.321">
        <ele>752</ele>
        <time>2013-02-17T10:20:20Z</time>
      </trkpt>
      <trkpt lat="43.83437" lon="7.32088">
        <ele>752.2</ele>
        <time>2013-02-17T10:20:26Z</time>
      </trkpt>
      <trkpt lat="43.83455" lon="7.3208">
        <ele>752.1</ele>
        <time>2013-02-17T10:20:32Z</time>
      </trkpt>
      <trkpt lat="43.83472" lon="7.32071">
        <ele>752.2</ele>
        <time>2013-02-17T10:20:38Z</time>
      </trkpt>
      <trkpt lat="43.83487" lon="7.32063">
        <ele>753.4</ele>
        <time>2013-02-17T10:20:44Z</time>
      </trkpt>
      <trkpt lat="43.83503" lon="7.32055">
        <ele>753.7</ele>
        <time>2013-02-17T10:20:50Z</time>
      </trkpt>
      <trkpt lat="43.83518" lon="7.32046">
        <ele>754.2</ele>
        <time>2013-02-17T10:20:56Z</time>
      </trkpt>
      <trkpt lat="43.83534" lon="7.32037">
        <ele>755.4</ele>
        <time>2013-02-17T10:21:02Z</time>
      </trkpt>
      <trkpt lat="43.83547" lon="7.32025">
        <ele>756.2</ele>
        <time>2013-02-17T10:21:08Z</time>
      </trkpt>
      <trkpt lat="43.83558" lon="7.32011">
        <ele>756.7</ele>
        <time>2013-02-17T10:21:14Z</time>
      </trkpt>
      <trkpt lat="43.83567" lon="7.31999">
        <ele>757.7</ele>
        <time>2013-02-17T10:21:20Z</time>
      </trkpt>
      <trkpt lat="43.8358" lon="7.31987">
        <ele>758.2</ele>
        <time>2013-02-17T10:21:26Z</time>
      </trkpt>
      <trkpt lat="43.83592" lon="7.31978">
        <ele>758.1</ele>
        <time>2013-02-17T10:21:31Z</time>
      </trkpt>
      <trkpt lat="43.83611" lon="7.31971">
        <ele>758.4</ele>
        <time>2013-02-17T10:21:37Z</time>
      </trkpt>
      <trkpt lat="43.83631" lon="7.31966">
        <ele>758.8</ele>
        <time>2013-02-17T10:21:43Z</time>
      </trkpt>
      <trkpt lat="43.83647" lon="7.31962">
        <ele>759</ele>
        <time>2013-02-17T10:21:48Z</time>
      </trkpt>
      <trkpt lat="43.83663" lon="7.3196">
        <ele>760.1</ele>
        <time>2013-02-17T10:21:54Z</time>
      </trkpt>
      <trkpt lat="43.83677" lon="7.31954">
        <ele>760.1</ele>
        <time>2013-02-17T10:21:59Z</time>
      </trkpt>
      <trkpt lat="43.8369" lon="7.31952">
        <ele>761.1</ele>
        <time>2013-02-17T10:22:04Z</time>
      </trkpt>
      <trkpt lat="43.83705" lon="7.31953">
        <ele>762.7</ele>
        <time>2013-02-17T10:22:10Z</time>
      </trkpt>
      <trkpt lat="43.83716" lon="7.31952">
        <ele>762.4</ele>
        <time>2013-02-17T10:22:15Z</time>
      </trkpt>
      <trkpt lat="43.83733" lon="7.31951">
        <ele>761.7</ele>
        <time>2013-02-17T10:22:21Z</time>
      </trkpt>
      <trkpt lat="43.83747" lon="7.31948">
        <ele>763.2</ele>
        <time>2013-02-17T10:22:26Z</time>
      </trkpt>
      <trkpt lat="43.83766" lon="7.31943">
        <ele>764.6</ele>
        <time>2013-02-17T10:22:32Z</time>
      </trkpt>
      <trkpt lat="43.83784" lon="7.31938">
        <ele>765</ele>
        <time>2013-02-17T10:22:38Z</time>
      </trkpt>
      <trkpt lat="43.838" lon="7.31932">
        <ele>765.5</ele>
        <time>2013-02-17T10:22:44Z</time>
      </trkpt>
      <trkpt lat="43.83822" lon="7.31927">
        <ele>765.8</ele>
        <time>2013-02-17T10:22:50Z</time>
      </trkpt>
      <trkpt lat="43.83843" lon="7.31923">
        <ele>766.3</ele>
        <time>2013-02-17T10:22:56Z</time>
      </trkpt>
      <trkpt lat="43.83862" lon="7.3192">
        <ele>766.6</ele>
        <time>2013-02-17T10:23:02Z</time>
      </trkpt>
      <trkpt lat="43.83882" lon="7.31918">
        <ele>766.3</ele>
        <time>2013-02-17T10:23:07Z</time>
      </trkpt>
      <trkpt lat="43.83902" lon="7.31914">
        <ele>766</ele>
        <time>2013-02-17T10:23:13Z</time>
      </trkpt>
      <trkpt lat="43.83918" lon="7.31907">
        <ele>766.5</ele>
        <time>2013-02-17T10:23:18Z</time>
      </trkpt>
      <trkpt lat="43.83937" lon="7.31899">
        <ele>766.9</ele>
        <time>2013-02-17T10:23:24Z</time>
      </trkpt>
      <trkpt lat="43.83955" lon="7.3189">
        <ele>767</ele>
        <time>2013-02-17T10:23:29Z</time>
      </trkpt>
      <trkpt lat="43.83971" lon="7.31882">
        <ele>767.2</ele>
        <time>2013-02-17T10:23:34Z</time>
      </trkpt>
      <trkpt lat="43.83994" lon="7.31871">
        <ele>769.2</ele>
        <time>2013-02-17T10:23:40Z</time>
      </trkpt>
      <trkpt lat="43.84011" lon="7.31864">
        <ele>769.8</ele>
        <time>2013-02-17T10:23:45Z</time>
      </trkpt>
      <trkpt lat="43.84032" lon="7.31862">
        <ele>771.5</ele>
        <time>2013-02-17T10:23:51Z</time>
      </trkpt>
      <trkpt lat="43.84047" lon="7.31856">
        <ele>771.1</ele>
        <time>2013-02-17T10:23:56Z</time>
      </trkpt>
      <trkpt lat="43.84059" lon="7.31838">
        <ele>771.3</ele>
        <time>2013-02-17T10:24:02Z</time>
      </trkpt>
      <trkpt lat="43.84072" lon="7.31829">
        <ele>771.7</ele>
        <time>2013-02-17T10:24:10Z</time>
      </trkpt>
      <trkpt lat="43.8408" lon="7.31823">
        <ele>772.8</ele>
        <time>2013-02-17T10:24:16Z</time>
      </trkpt>
      <trkpt lat="43.8409" lon="7.31815">
        <ele>774.4</ele>
        <time>2013-02-17T10:24:21Z</time>
      </trkpt>
      <trkpt lat="43.841" lon="7.31804">
        <ele>778.6</ele>
        <time>2013-02-17T10:24:27Z</time>
      </trkpt>
      <trkpt lat="43.84109" lon="7.3179">
        <ele>780.2</ele>
        <time>2013-02-17T10:24:37Z</time>
      </trkpt>
      <trkpt lat="43.84124" lon="7.31782">
        <ele>781.8</ele>
        <time>2013-02-17T10:24:51Z</time>
      </trkpt>
      <trkpt lat="43.84133" lon="7.31782">
        <ele>782.5</ele>
        <time>2013-02-17T10:24:57Z</time>
      </trkpt>
      <trkpt lat="43.84139" lon="7.31784">
        <ele>782.4</ele>
        <time>2013-02-17T10:25:03Z</time>
      </trkpt>
      <trkpt lat="43.84174" lon="7.31783">
        <ele>788.1</ele>
        <time>2013-02-17T10:25:32Z</time>
      </trkpt>
      <trkpt lat="43.84181" lon="7.31779">
        <ele>787.7</ele>
        <time>2013-02-17T10:25:38Z</time>
      </trkpt>
      <trkpt lat="43.8419" lon="7.31776">
        <ele>788.9</ele>
        <time>2013-02-17T10:25:45Z</time>
      </trkpt>
      <trkpt lat="43.842" lon="7.31776">
        <ele>789.5</ele>
        <time>2013-02-17T10:25:51Z</time>
      </trkpt>
      <trkpt lat="43.84222" lon="7.31772">
        <ele>792.3</ele>
        <time>2013-02-17T10:26:06Z</time>
      </trkpt>
      <trkpt lat="43.84233" lon="7.3177">
        <ele>793.2</ele>
        <time>2013-02-17T10:26:12Z</time>
      </trkpt>
      <trkpt lat="43.84243" lon="7.3177">
        <ele>793.3</ele>
        <time>2013-02-17T10:26:18Z</time>
      </trkpt>
      <trkpt lat="43.84256" lon="7.31767">
        <ele>793.2</ele>
        <time>2013-02-17T10:26:25Z</time>
      </trkpt>
      <trkpt lat="43.84266" lon="7.31765">
        <ele>793.6</ele>
        <time>2013-02-17T10:26:31Z</time>
      </trkpt>
      <trkpt lat="43.84274" lon="7.31763">
        <ele>794.2</ele>
        <time>2013-02-17T10:26:36Z</time>
      </trkpt>
      <trkpt lat="43.84283" lon="7.31761">
        <ele>795.4</ele>
        <time>2013-02-17T10:26:41Z</time>
      </trkpt>
      <trkpt lat="43.84296" lon="7.31757">
        <ele>795.8</ele>
        <time>2013-02-17T10:26:48Z</time>
      </trkpt>
      <trkpt lat="43.84307" lon="7.31753">
        <ele>796</ele>
        <time>2013-02-17T10:26:54Z</time>
      </trkpt>
      <trkpt lat="43.84319" lon="7.3175">
        <ele>796.3</ele>
        <time>2013-02-17T10:27:00Z</time>
      </trkpt>
      <trkpt lat="43.8433" lon="7.31747">
        <ele>796.1</ele>
        <time>2013-02-17T10:27:05Z</time>
      </trkpt>
      <trkpt lat="43.84339" lon="7.31744">
        <ele>797.3</ele>
        <time>2013-02-17T10:27:11Z</time>
      </trkpt>
      <trkpt lat="43.8435" lon="7.31741">
        <ele>797.9</ele>
        <time>2013-02-17T10:27:17Z</time>
      </trkpt>
      <trkpt lat="43.8436" lon="7.31739">
        <ele>799.1</ele>
        <time>2013-02-17T10:27:23Z</time>
      </trkpt>
      <trkpt lat="43.8437" lon="7.31737">
        <ele>799.9</ele>
        <time>2013-02-17T10:27:29Z</time>
      </trkpt>
      <trkpt lat="43.84377" lon="7.31734">
        <ele>800.4</ele>
        <time>2013-02-17T10:27:34Z</time>
      </trkpt>
      <trkpt lat="43.84386" lon="7.31728">
        <ele>802</ele>
        <time>2013-02-17T10:27:39Z</time>
      </trkpt>
      <trkpt lat="43.84395" lon="7.31721">
        <ele>802.4</ele>
        <time>2013-02-17T10:27:45Z</time>
      </trkpt>
      <trkpt lat="43.84405" lon="7.31713">
        <ele>803.6</ele>
        <time>2013-02-17T10:27:51Z</time>
      </trkpt>
      <trkpt lat="43.84418" lon="7.31708">
        <ele>804.8</ele>
        <time>2013-02-17T10:27:57Z</time>
      </trkpt>
      <trkpt lat="43.84428" lon="7.31702">
        <ele>805.3</ele>
        <time>2013-02-17T10:28:02Z</time>
      </trkpt>
      <trkpt lat="43.84442" lon="7.31696">
        <ele>805.9</ele>
        <time>2013-02-17T10:28:08Z</time>
      </trkpt>
      <trkpt lat="43.84455" lon="7.31699">
        <ele>806.8</ele>
        <time>2013-02-17T10:28:14Z</time>
      </trkpt>
      <trkpt lat="43.84465" lon="7.31704">
        <ele>807.2</ele>
        <time>2013-02-17T10:28:19Z</time>
      </trkpt>
      <trkpt lat="43.84475" lon="7.31709">
        <ele>807.2</ele>
        <time>2013-02-17T10:28:25Z</time>
      </trkpt>
      <trkpt lat="43.84493" lon="7.31706">
        <ele>807.3</ele>
        <time>2013-02-17T10:28:30Z</time>
      </trkpt>
      <trkpt lat="43.84505" lon="7.31694">
        <ele>807.9</ele>
        <time>2013-02-17T10:28:35Z</time>
      </trkpt>
      <trkpt lat="43.84514" lon="7.31682">
        <ele>807.3</ele>
        <time>2013-02-17T10:28:41Z</time>
      </trkpt>
      <trkpt lat="43.84524" lon="7.31672">
        <ele>807</ele>
        <time>2013-02-17T10:28:48Z</time>
      </trkpt>
      <trkpt lat="43.84535" lon="7.31664">
        <ele>806.7</ele>
        <time>2013-02-17T10:28:54Z</time>
      </trkpt>
      <trkpt lat="43.84544" lon="7.31658">
        <ele>807.2</ele>
        <time>2013-02-17T10:28:59Z</time>
      </trkpt>
      <trkpt lat="43.8455" lon="7.3165">
        <ele>806.8</ele>
        <time>2013-02-17T10:29:05Z</time>
      </trkpt>
      <trkpt lat="43.84555" lon="7.31634">
        <ele>807.2</ele>
        <time>2013-02-17T10:29:11Z</time>
      </trkpt>
      <trkpt lat="43.84568" lon="7.31621">
        <ele>809.1</ele>
        <time>2013-02-17T10:29:17Z</time>
      </trkpt>
      <trkpt lat="43.84579" lon="7.31612">
        <ele>809.2</ele>
        <time>2013-02-17T10:29:23Z</time>
      </trkpt>
      <trkpt lat="43.84593" lon="7.31603">
        <ele>808.8</ele>
        <time>2013-02-17T10:29:29Z</time>
      </trkpt>
      <trkpt lat="43.84606" lon="7.31594">
        <ele>809.6</ele>
        <time>2013-02-17T10:29:35Z</time>
      </trkpt>
      <trkpt lat="43.84616" lon="7.31577">
        <ele>809.3</ele>
        <time>2013-02-17T10:29:41Z</time>
      </trkpt>
      <trkpt lat="43.84628" lon="7.31566">
        <ele>809.2</ele>
        <time>2013-02-17T10:29:46Z</time>
      </trkpt>
      <trkpt lat="43.84637" lon="7.31559">
        <ele>810</ele>
        <time>2013-02-17T10:29:51Z</time>
      </trkpt>
      <trkpt lat="43.84646" lon="7.31556">
        <ele>810.7</ele>
        <time>2013-02-17T10:29:57Z</time>
      </trkpt>
      <trkpt lat="43.84655" lon="7.31556">
        <ele>811.4</ele>
        <time>2013-02-17T10:30:03Z</time>
      </trkpt>
      <trkpt lat="43.84667" lon="7.31558">
        <ele>811.5</ele>
        <time>2013-02-17T10:30:09Z</time>
      </trkpt>
      <trkpt lat="43.84678" lon="7.31561">
        <ele>812.2</ele>
        <time>2013-02-17T10:30:15Z</time>
      </trkpt>
      <trkpt lat="43.84687" lon="7.3156">
        <ele>813.4</ele>
        <time>2013-02-17T10:30:21Z</time>
      </trkpt>
      <trkpt lat="43.84701" lon="7.31552">
        <ele>814.2</ele>
        <time>2013-02-17T10:30:32Z</time>
      </trkpt>
      <trkpt lat="43.84708" lon="7.31551">
        <ele>814.8</ele>
        <time>2013-02-17T10:31:23Z</time>
      </trkpt>
      <trkpt lat="43.84694" lon="7.31566">
        <ele>814.2</ele>
        <time>2013-02-17T10:31:28Z</time>
      </trkpt>
      <trkpt lat="43.84668" lon="7.31565">
        <ele>813.5</ele>
        <time>2013-02-17T10:31:33Z</time>
      </trkpt>
      <trkpt lat="43.84636" lon="7.3157">
        <ele>812.9</ele>
        <time>2013-02-17T10:31:39Z</time>
      </trkpt>
      <trkpt lat="43.84609" lon="7.31591">
        <ele>812.2</ele>
        <time>2013-02-17T10:31:44Z</time>
      </trkpt>
      <trkpt lat="43.84582" lon="7.3162">
        <ele>811</ele>
        <time>2013-02-17T10:31:50Z</time>
      </trkpt>
      <trkpt lat="43.84555" lon="7.31648">
        <ele>810</ele>
        <time>2013-02-17T10:31:56Z</time>
      </trkpt>
      <trkpt lat="43.84547" lon="7.3165">
        <ele>809.4</ele>
        <time>2013-02-17T10:32:03Z</time>
      </trkpt>
      <trkpt lat="43.84556" lon="7.3162">
        <ele>806.9</ele>
        <time>2013-02-17T10:32:09Z</time>
      </trkpt>
      <trkpt lat="43.84563" lon="7.3159">
        <ele>805.6</ele>
        <time>2013-02-17T10:32:14Z</time>
      </trkpt>
      <trkpt lat="43.8457" lon="7.31567">
        <ele>805.9</ele>
        <time>2013-02-17T10:32:19Z</time>
      </trkpt>
      <trkpt lat="43.8458" lon="7.31547">
        <ele>805.9</ele>
        <time>2013-02-17T10:32:25Z</time>
      </trkpt>
      <trkpt lat="43.84589" lon="7.31534">
        <ele>804.2</ele>
        <time>2013-02-17T10:32:30Z</time>
      </trkpt>
      <trkpt lat="43.84601" lon="7.3151">
        <ele>804</ele>
        <time>2013-02-17T10:32:36Z</time>
      </trkpt>
      <trkpt lat="43.84611" lon="7.31497">
        <ele>802.6</ele>
        <time>2013-02-17T10:32:41Z</time>
      </trkpt>
      <trkpt lat="43.84626" lon="7.31483">
        <ele>801.7</ele>
        <time>2013-02-17T10:32:47Z</time>
      </trkpt>
      <trkpt lat="43.84633" lon="7.31476">
        <ele>795</ele>
        <time>2013-02-17T10:33:07Z</time>
      </trkpt>
      <trkpt lat="43.84643" lon="7.31466">
        <ele>794.7</ele>
        <time>2013-02-17T10:33:12Z</time>
      </trkpt>
      <trkpt lat="43.84652" lon="7.31447">
        <ele>794.9</ele>
        <time>2013-02-17T10:33:18Z</time>
      </trkpt>
      <trkpt lat="43.84651" lon="7.31427">
        <ele>793.9</ele>
        <time>2013-02-17T10:33:23Z</time>
      </trkpt>
      <trkpt lat="43.84645" lon="7.31405">
        <ele>793.5</ele>
        <time>2013-02-17T10:33:29Z</time>
      </trkpt>
      <trkpt lat="43.84648" lon="7.31385">
        <ele>793.2</ele>
        <time>2013-02-17T10:33:35Z</time>
      </trkpt>
      <trkpt lat="43.84651" lon="7.31364">
        <ele>793.3</ele>
        <time>2013-02-17T10:33:41Z</time>
      </trkpt>
      <trkpt lat="43.84647" lon="7.31343">
        <ele>793.6</ele>
        <time>2013-02-17T10:33:47Z</time>
      </trkpt>
      <trkpt lat="43.84642" lon="7.31325">
        <ele>792.9</ele>
        <time>2013-02-17T10:33:52Z</time>
      </trkpt>
      <trkpt lat="43.84638" lon="7.31303">
        <ele>792</ele>
        <time>2013-02-17T10:33:58Z</time>
      </trkpt>
      <trkpt lat="43.84641" lon="7.31288">
        <ele>793</ele>
        <time>2013-02-17T10:34:03Z</time>
      </trkpt>
      <trkpt lat="43.8465" lon="7.31266">
        <ele>792.4</ele>
        <time>2013-02-17T10:34:09Z</time>
      </trkpt>
      <trkpt lat="43.84655" lon="7.3125">
        <ele>791.9</ele>
        <time>2013-02-17T10:34:15Z</time>
      </trkpt>
      <trkpt lat="43.84665" lon="7.31229">
        <ele>791.7</ele>
        <time>2013-02-17T10:34:20Z</time>
      </trkpt>
      <trkpt lat="43.84668" lon="7.3122">
        <ele>791.8</ele>
        <time>2013-02-17T10:39:20Z</time>
      </trkpt>
      <trkpt lat="43.84684" lon="7.31211">
        <ele>791.2</ele>
        <time>2013-02-17T10:39:26Z</time>
      </trkpt>
      <trkpt lat="43.84691" lon="7.31204">
        <ele>791.3</ele>
        <time>2013-02-17T10:39:32Z</time>
      </trkpt>
      <trkpt lat="43.84708" lon="7.31196">
        <ele>790.6</ele>
        <time>2013-02-17T10:39:37Z</time>
      </trkpt>
      <trkpt lat="43.84729" lon="7.3119">
        <ele>790.2</ele>
        <time>2013-02-17T10:39:43Z</time>
      </trkpt>
      <trkpt lat="43.84739" lon="7.31183">
        <ele>790</ele>
        <time>2013-02-17T10:39:48Z</time>
      </trkpt>
      <trkpt lat="43.84753" lon="7.31174">
        <ele>791</ele>
        <time>2013-02-17T10:39:54Z</time>
      </trkpt>
      <trkpt lat="43.84766" lon="7.31184">
        <ele>790.7</ele>
        <time>2013-02-17T10:40:00Z</time>
      </trkpt>
      <trkpt lat="43.84787" lon="7.31179">
        <ele>789.8</ele>
        <time>2013-02-17T10:40:05Z</time>
      </trkpt>
      <trkpt lat="43.84805" lon="7.3117">
        <ele>789.8</ele>
        <time>2013-02-17T10:40:10Z</time>
      </trkpt>
      <trkpt lat="43.84818" lon="7.31177">
        <ele>789.7</ele>
        <time>2013-02-17T10:40:18Z</time>
      </trkpt>
      <trkpt lat="43.84829" lon="7.31168">
        <ele>790.8</ele>
        <time>2013-02-17T10:40:25Z</time>
      </trkpt>
      <trkpt lat="43.84838" lon="7.31152">
        <ele>790.3</ele>
        <time>2013-02-17T10:40:31Z</time>
      </trkpt>
      <trkpt lat="43.8484" lon="7.31139">
        <ele>787.1</ele>
        <time>2013-02-17T10:40:37Z</time>
      </trkpt>
      <trkpt lat="43.84853" lon="7.31131">
        <ele>783.7</ele>
        <time>2013-02-17T10:40:55Z</time>
      </trkpt>
      <trkpt lat="43.84863" lon="7.31132">
        <ele>784.2</ele>
        <time>2013-02-17T10:41:01Z</time>
      </trkpt>
      <trkpt lat="43.84881" lon="7.31126">
        <ele>783.4</ele>
        <time>2013-02-17T10:41:34Z</time>
      </trkpt>
      <trkpt lat="43.84888" lon="7.31126">
        <ele>781.6</ele>
        <time>2013-02-17T10:41:41Z</time>
      </trkpt>
      <trkpt lat="43.84901" lon="7.31132">
        <ele>781.6</ele>
        <time>2013-02-17T10:41:46Z</time>
      </trkpt>
      <trkpt lat="43.84918" lon="7.31128">
        <ele>777</ele>
        <time>2013-02-17T10:42:30Z</time>
      </trkpt>
      <trkpt lat="43.84928" lon="7.31125">
        <ele>775.4</ele>
        <time>2013-02-17T10:42:42Z</time>
      </trkpt>
      <trkpt lat="43.84952" lon="7.31139">
        <ele>773.9</ele>
        <time>2013-02-17T10:43:59Z</time>
      </trkpt>
      <trkpt lat="43.84966" lon="7.31157">
        <ele>780</ele>
        <time>2013-02-17T10:48:01Z</time>
      </trkpt>
      <trkpt lat="43.84956" lon="7.31152">
        <ele>780.4</ele>
        <time>2013-02-17T10:48:07Z</time>
      </trkpt>
      <trkpt lat="43.84944" lon="7.31142">
        <ele>780.1</ele>
        <time>2013-02-17T10:48:13Z</time>
      </trkpt>
      <trkpt lat="43.84935" lon="7.31129">
        <ele>777.8</ele>
        <time>2013-02-17T10:48:18Z</time>
      </trkpt>
      <trkpt lat="43.84938" lon="7.31077">
        <ele>768.7</ele>
        <time>2013-02-17T10:49:07Z</time>
      </trkpt>
      <trkpt lat="43.8494" lon="7.31067">
        <ele>767.5</ele>
        <time>2013-02-17T10:49:13Z</time>
      </trkpt>
      <trkpt lat="43.84935" lon="7.31056">
        <ele>766.7</ele>
        <time>2013-02-17T10:49:18Z</time>
      </trkpt>
      <trkpt lat="43.8493" lon="7.31041">
        <ele>764.2</ele>
        <time>2013-02-17T10:49:23Z</time>
      </trkpt>
      <trkpt lat="43.84927" lon="7.31022">
        <ele>762.4</ele>
        <time>2013-02-17T10:49:29Z</time>
      </trkpt>
      <trkpt lat="43.84915" lon="7.31008">
        <ele>759.8</ele>
        <time>2013-02-17T10:49:34Z</time>
      </trkpt>
      <trkpt lat="43.84917" lon="7.31">
        <ele>753.6</ele>
        <time>2013-02-17T10:49:48Z</time>
      </trkpt>
      <trkpt lat="43.84921" lon="7.31006">
        <ele>752.8</ele>
        <time>2013-02-17T10:49:56Z</time>
      </trkpt>
      <trkpt lat="43.84923" lon="7.3101">
        <ele>751.4</ele>
        <time>2013-02-17T10:50:10Z</time>
      </trkpt>
      <trkpt lat="43.84912" lon="7.30991">
        <ele>750.4</ele>
        <time>2013-02-17T10:51:15Z</time>
      </trkpt>
      <trkpt lat="43.84901" lon="7.30985">
        <ele>749.9</ele>
        <time>2013-02-17T10:51:21Z</time>
      </trkpt>
      <trkpt lat="43.84885" lon="7.30971">
        <ele>747.9</ele>
        <time>2013-02-17T10:51:26Z</time>
      </trkpt>
      <trkpt lat="43.84885" lon="7.30948">
        <ele>743</ele>
        <time>2013-02-17T10:51:32Z</time>
      </trkpt>
      <trkpt lat="43.84883" lon="7.30936">
        <ele>739.6</ele>
        <time>2013-02-17T10:51:37Z</time>
      </trkpt>
      <trkpt lat="43.84874" lon="7.30929">
        <ele>735.8</ele>
        <time>2013-02-17T10:51:46Z</time>
      </trkpt>
      <trkpt lat="43.84869" lon="7.30921">
        <ele>733.1</ele>
        <time>2013-02-17T10:51:52Z</time>
      </trkpt>
      <trkpt lat="43.84862" lon="7.30908">
        <ele>729.6</ele>
        <time>2013-02-17T10:52:00Z</time>
      </trkpt>
      <trkpt lat="43.84853" lon="7.30895">
        <ele>725.8</ele>
        <time>2013-02-17T10:52:06Z</time>
      </trkpt>
      <trkpt lat="43.84844" lon="7.30889">
        <ele>722.5</ele>
        <time>2013-02-17T10:52:14Z</time>
      </trkpt>
      <trkpt lat="43.84837" lon="7.30882">
        <ele>720.2</ele>
        <time>2013-02-17T10:52:19Z</time>
      </trkpt>
      <trkpt lat="43.84839" lon="7.30877">
        <ele>714.8</ele>
        <time>2013-02-17T10:52:48Z</time>
      </trkpt>
      <trkpt lat="43.84833" lon="7.30875">
        <ele>714.1</ele>
        <time>2013-02-17T10:52:53Z</time>
      </trkpt>
      <trkpt lat="43.84824" lon="7.30861">
        <ele>712.4</ele>
        <time>2013-02-17T10:52:59Z</time>
      </trkpt>
      <trkpt lat="43.84814" lon="7.30852">
        <ele>710.7</ele>
        <time>2013-02-17T10:53:04Z</time>
      </trkpt>
      <trkpt lat="43.84807" lon="7.30843">
        <ele>708.4</ele>
        <time>2013-02-17T10:53:09Z</time>
      </trkpt>
      <trkpt lat="43.84799" lon="7.30835">
        <ele>705.2</ele>
        <time>2013-02-17T10:53:15Z</time>
      </trkpt>
      <trkpt lat="43.84791" lon="7.30831">
        <ele>703.8</ele>
        <time>2013-02-17T10:53:21Z</time>
      </trkpt>
      <trkpt lat="43.84776" lon="7.30817">
        <ele>700.7</ele>
        <time>2013-02-17T10:53:27Z</time>
      </trkpt>
      <trkpt lat="43.84768" lon="7.30817">
        <ele>696.9</ele>
        <time>2013-02-17T10:53:33Z</time>
      </trkpt>
      <trkpt lat="43.8479" lon="7.30776">
        <ele>685.1</ele>
        <time>2013-02-17T10:55:25Z</time>
      </trkpt>
      <trkpt lat="43.84802" lon="7.30755">
        <ele>686.1</ele>
        <time>2013-02-17T10:55:49Z</time>
      </trkpt>
      <trkpt lat="43.84809" lon="7.30747">
        <ele>685.1</ele>
        <time>2013-02-17T10:55:55Z</time>
      </trkpt>
      <trkpt lat="43.84817" lon="7.3074">
        <ele>684.7</ele>
        <time>2013-02-17T10:56:02Z</time>
      </trkpt>
      <trkpt lat="43.84827" lon="7.30733">
        <ele>685</ele>
        <time>2013-02-17T10:56:09Z</time>
      </trkpt>
      <trkpt lat="43.8484" lon="7.3073">
        <ele>684.8</ele>
        <time>2013-02-17T10:56:15Z</time>
      </trkpt>
      <trkpt lat="43.84851" lon="7.30731">
        <ele>685</ele>
        <time>2013-02-17T10:56:21Z</time>
      </trkpt>
      <trkpt lat="43.84858" lon="7.30743">
        <ele>684.5</ele>
        <time>2013-02-17T10:56:27Z</time>
      </trkpt>
      <trkpt lat="43.84867" lon="7.30753">
        <ele>684.9</ele>
        <time>2013-02-17T10:56:33Z</time>
      </trkpt>
      <trkpt lat="43.84874" lon="7.3076">
        <ele>685.4</ele>
        <time>2013-02-17T10:56:39Z</time>
      </trkpt>
      <trkpt lat="43.84871" lon="7.3077">
        <ele>684.7</ele>
        <time>2013-02-17T10:56:52Z</time>
      </trkpt>
      <trkpt lat="43.84885" lon="7.30771">
        <ele>684.6</ele>
        <time>2013-02-17T10:56:57Z</time>
      </trkpt>
      <trkpt lat="43.84891" lon="7.30771">
        <ele>682.2</ele>
        <time>2013-02-17T10:57:03Z</time>
      </trkpt>
      <trkpt lat="43.849" lon="7.3077">
        <ele>680.7</ele>
        <time>2013-02-17T10:57:10Z</time>
      </trkpt>
      <trkpt lat="43.84913" lon="7.3077">
        <ele>681.6</ele>
        <time>2013-02-17T10:57:15Z</time>
      </trkpt>
      <trkpt lat="43.84923" lon="7.3076">
        <ele>684.2</ele>
        <time>2013-02-17T10:57:21Z</time>
      </trkpt>
      <trkpt lat="43.84922" lon="7.3074">
        <ele>686.4</ele>
        <time>2013-02-17T10:57:26Z</time>
      </trkpt>
      <trkpt lat="43.8492" lon="7.30726">
        <ele>683.6</ele>
        <time>2013-02-17T10:57:35Z</time>
      </trkpt>
      <trkpt lat="43.84919" lon="7.30716">
        <ele>676.5</ele>
        <time>2013-02-17T10:57:41Z</time>
      </trkpt>
      <trkpt lat="43.84907" lon="7.30714">
        <ele>675.8</ele>
        <time>2013-02-17T10:57:46Z</time>
      </trkpt>
      <trkpt lat="43.84901" lon="7.307">
        <ele>675.3</ele>
        <time>2013-02-17T10:57:52Z</time>
      </trkpt>
      <trkpt lat="43.84899" lon="7.30681">
        <ele>674.3</ele>
        <time>2013-02-17T10:57:57Z</time>
      </trkpt>
      <trkpt lat="43.84889" lon="7.30673">
        <ele>672.6</ele>
        <time>2013-02-17T10:58:04Z</time>
      </trkpt>
      <trkpt lat="43.8489" lon="7.30639">
        <ele>668.4</ele>
        <time>2013-02-17T10:58:10Z</time>
      </trkpt>
      <trkpt lat="43.84891" lon="7.30619">
        <ele>666.4</ele>
        <time>2013-02-17T10:58:15Z</time>
      </trkpt>
      <trkpt lat="43.84889" lon="7.30604">
        <ele>665.5</ele>
        <time>2013-02-17T10:58:21Z</time>
      </trkpt>
      <trkpt lat="43.84895" lon="7.30594">
        <ele>664.6</ele>
        <time>2013-02-17T10:58:39Z</time>
      </trkpt>
      <trkpt lat="43.8491" lon="7.30577">
        <ele>665.9</ele>
        <time>2013-02-17T10:58:45Z</time>
      </trkpt>
      <trkpt lat="43.84918" lon="7.30569">
        <ele>667.4</ele>
        <time>2013-02-17T10:58:51Z</time>
      </trkpt>
      <trkpt lat="43.84919" lon="7.30551">
        <ele>667.4</ele>
        <time>2013-02-17T10:58:57Z</time>
      </trkpt>
      <trkpt lat="43.84914" lon="7.3054">
        <ele>665.2</ele>
        <time>2013-02-17T10:59:03Z</time>
      </trkpt>
      <trkpt lat="43.8491" lon="7.30528">
        <ele>660.7</ele>
        <time>2013-02-17T10:59:12Z</time>
      </trkpt>
      <trkpt lat="43.84913" lon="7.30519">
        <ele>659.6</ele>
        <time>2013-02-17T10:59:18Z</time>
      </trkpt>
      <trkpt lat="43.84909" lon="7.30507">
        <ele>657.8</ele>
        <time>2013-02-17T10:59:23Z</time>
      </trkpt>
      <trkpt lat="43.84901" lon="7.30492">
        <ele>656.4</ele>
        <time>2013-02-17T10:59:29Z</time>
      </trkpt>
      <trkpt lat="43.84894" lon="7.30475">
        <ele>655.9</ele>
        <time>2013-02-17T10:59:34Z</time>
      </trkpt>
      <trkpt lat="43.84884" lon="7.3048">
        <ele>655.1</ele>
        <time>2013-02-17T10:59:40Z</time>
      </trkpt>
      <trkpt lat="43.8487" lon="7.30475">
        <ele>652.8</ele>
        <time>2013-02-17T10:59:45Z</time>
      </trkpt>
      <trkpt lat="43.84872" lon="7.30451">
        <ele>647.3</ele>
        <time>2013-02-17T10:59:52Z</time>
      </trkpt>
      <trkpt lat="43.84869" lon="7.30435">
        <ele>644.9</ele>
        <time>2013-02-17T10:59:57Z</time>
      </trkpt>
      <trkpt lat="43.84865" lon="7.30414">
        <ele>642</ele>
        <time>2013-02-17T11:00:03Z</time>
      </trkpt>
      <trkpt lat="43.84861" lon="7.30406">
        <ele>638.2</ele>
        <time>2013-02-17T11:00:09Z</time>
      </trkpt>
      <trkpt lat="43.84864" lon="7.30385">
        <ele>634.4</ele>
        <time>2013-02-17T11:00:15Z</time>
      </trkpt>
      <trkpt lat="43.84852" lon="7.30382">
        <ele>631.7</ele>
        <time>2013-02-17T11:00:20Z</time>
      </trkpt>
      <trkpt lat="43.84838" lon="7.30374">
        <ele>629</ele>
        <time>2013-02-17T11:00:27Z</time>
      </trkpt>
      <trkpt lat="43.84839" lon="7.30356">
        <ele>622.7</ele>
        <time>2013-02-17T11:00:49Z</time>
      </trkpt>
      <trkpt lat="43.84835" lon="7.3035">
        <ele>622.6</ele>
        <time>2013-02-17T11:00:55Z</time>
      </trkpt>
      <trkpt lat="43.84824" lon="7.30344">
        <ele>622.1</ele>
        <time>2013-02-17T11:01:00Z</time>
      </trkpt>
      <trkpt lat="43.84819" lon="7.30341">
        <ele>618</ele>
        <time>2013-02-17T11:02:17Z</time>
      </trkpt>
      <trkpt lat="43.84817" lon="7.30337">
        <ele>617.6</ele>
        <time>2013-02-17T11:02:28Z</time>
      </trkpt>
      <trkpt lat="43.84825" lon="7.30331">
        <ele>616.5</ele>
        <time>2013-02-17T11:02:33Z</time>
      </trkpt>
      <trkpt lat="43.84845" lon="7.30332">
        <ele>616.1</ele>
        <time>2013-02-17T11:02:39Z</time>
      </trkpt>
      <trkpt lat="43.8486" lon="7.30325">
        <ele>615.1</ele>
        <time>2013-02-17T11:02:45Z</time>
      </trkpt>
      <trkpt lat="43.84857" lon="7.30316">
        <ele>615.6</ele>
        <time>2013-02-17T11:03:11Z</time>
      </trkpt>
      <trkpt lat="43.84854" lon="7.303">
        <ele>615.4</ele>
        <time>2013-02-17T11:03:16Z</time>
      </trkpt>
      <trkpt lat="43.84848" lon="7.30264">
        <ele>613.1</ele>
        <time>2013-02-17T11:03:50Z</time>
      </trkpt>
      <trkpt lat="43.84845" lon="7.30251">
        <ele>611.6</ele>
        <time>2013-02-17T11:03:56Z</time>
      </trkpt>
      <trkpt lat="43.84834" lon="7.30241">
        <ele>610.1</ele>
        <time>2013-02-17T11:04:03Z</time>
      </trkpt>
      <trkpt lat="43.84839" lon="7.30236">
        <ele>606.5</ele>
        <time>2013-02-17T11:04:16Z</time>
      </trkpt>
      <trkpt lat="43.84846" lon="7.30235">
        <ele>605.9</ele>
        <time>2013-02-17T11:04:26Z</time>
      </trkpt>
      <trkpt lat="43.84862" lon="7.30235">
        <ele>604.6</ele>
        <time>2013-02-17T11:04:55Z</time>
      </trkpt>
      <trkpt lat="43.84881" lon="7.30232">
        <ele>607.5</ele>
        <time>2013-02-17T11:05:13Z</time>
      </trkpt>
      <trkpt lat="43.84901" lon="7.30239">
        <ele>608.4</ele>
        <time>2013-02-17T11:05:18Z</time>
      </trkpt>
      <trkpt lat="43.84918" lon="7.3024">
        <ele>606.7</ele>
        <time>2013-02-17T11:05:24Z</time>
      </trkpt>
      <trkpt lat="43.84929" lon="7.30241">
        <ele>606.2</ele>
        <time>2013-02-17T11:05:29Z</time>
      </trkpt>
      <trkpt lat="43.84952" lon="7.30254">
        <ele>610.2</ele>
        <time>2013-02-17T11:05:54Z</time>
      </trkpt>
      <trkpt lat="43.84967" lon="7.30258">
        <ele>607.4</ele>
        <time>2013-02-17T11:09:56Z</time>
      </trkpt>
      <trkpt lat="43.85" lon="7.30285">
        <ele>610</ele>
        <time>2013-02-17T11:11:25Z</time>
      </trkpt>
      <trkpt lat="43.85035" lon="7.30305">
        <ele>622.2</ele>
        <time>2013-02-17T11:12:32Z</time>
      </trkpt>
      <trkpt lat="43.85047" lon="7.30316">
        <ele>624.3</ele>
        <time>2013-02-17T11:12:44Z</time>
      </trkpt>
      <trkpt lat="43.8508" lon="7.30353">
        <ele>627.5</ele>
        <time>2013-02-17T11:13:26Z</time>
      </trkpt>
      <trkpt lat="43.85091" lon="7.3037">
        <ele>630.6</ele>
        <time>2013-02-17T11:13:42Z</time>
      </trkpt>
      <trkpt lat="43.85101" lon="7.30416">
        <ele>646.5</ele>
        <time>2013-02-17T11:16:10Z</time>
      </trkpt>
      <trkpt lat="43.8513" lon="7.30421">
        <ele>646.1</ele>
        <time>2013-02-17T11:17:01Z</time>
      </trkpt>
      <trkpt lat="43.85143" lon="7.30424">
        <ele>647.4</ele>
        <time>2013-02-17T11:17:21Z</time>
      </trkpt>
      <trkpt lat="43.85156" lon="7.30428">
        <ele>648</ele>
        <time>2013-02-17T11:17:27Z</time>
      </trkpt>
      <trkpt lat="43.85162" lon="7.30439">
        <ele>646.6</ele>
        <time>2013-02-17T11:17:32Z</time>
      </trkpt>
      <trkpt lat="43.85171" lon="7.30447">
        <ele>645.9</ele>
        <time>2013-02-17T11:17:39Z</time>
      </trkpt>
      <trkpt lat="43.8518" lon="7.30458">
        <ele>646.2</ele>
        <time>2013-02-17T11:17:45Z</time>
      </trkpt>
      <trkpt lat="43.8519" lon="7.30484">
        <ele>649.8</ele>
        <time>2013-02-17T11:18:11Z</time>
      </trkpt>
      <trkpt lat="43.85198" lon="7.30493">
        <ele>649.9</ele>
        <time>2013-02-17T11:18:17Z</time>
      </trkpt>
      <trkpt lat="43.85202" lon="7.30503">
        <ele>650.7</ele>
        <time>2013-02-17T11:18:23Z</time>
      </trkpt>
      <trkpt lat="43.85219" lon="7.30523">
        <ele>661.2</ele>
        <time>2013-02-17T11:21:37Z</time>
      </trkpt>
      <trkpt lat="43.85221" lon="7.30534">
        <ele>659.8</ele>
        <time>2013-02-17T11:21:42Z</time>
      </trkpt>
      <trkpt lat="43.85215" lon="7.30579">
        <ele>654.6</ele>
        <time>2013-02-17T11:22:34Z</time>
      </trkpt>
      <trkpt lat="43.85217" lon="7.30589">
        <ele>653.9</ele>
        <time>2013-02-17T11:22:40Z</time>
      </trkpt>
      <trkpt lat="43.8524" lon="7.30604">
        <ele>656.6</ele>
        <time>2013-02-17T11:23:43Z</time>
      </trkpt>
      <trkpt lat="43.85249" lon="7.30609">
        <ele>656.8</ele>
        <time>2013-02-17T11:23:48Z</time>
      </trkpt>
      <trkpt lat="43.85262" lon="7.30615">
        <ele>655.6</ele>
        <time>2013-02-17T11:23:54Z</time>
      </trkpt>
      <trkpt lat="43.85268" lon="7.30626">
        <ele>654.8</ele>
        <time>2013-02-17T11:24:00Z</time>
      </trkpt>
      <trkpt lat="43.85274" lon="7.3062">
        <ele>655.9</ele>
        <time>2013-02-17T11:24:05Z</time>
      </trkpt>
      <trkpt lat="43.85283" lon="7.30612">
        <ele>655.1</ele>
        <time>2013-02-17T11:24:10Z</time>
      </trkpt>
      <trkpt lat="43.85294" lon="7.30604">
        <ele>653.4</ele>
        <time>2013-02-17T11:24:16Z</time>
      </trkpt>
      <trkpt lat="43.8531" lon="7.30608">
        <ele>652.8</ele>
        <time>2013-02-17T11:24:21Z</time>
      </trkpt>
      <trkpt lat="43.85333" lon="7.30604">
        <ele>652</ele>
        <time>2013-02-17T11:24:27Z</time>
      </trkpt>
      <trkpt lat="43.85348" lon="7.30589">
        <ele>648.9</ele>
        <time>2013-02-17T11:24:32Z</time>
      </trkpt>
      <trkpt lat="43.85367" lon="7.30577">
        <ele>647.6</ele>
        <time>2013-02-17T11:24:38Z</time>
      </trkpt>
      <trkpt lat="43.85383" lon="7.30575">
        <ele>643.9</ele>
        <time>2013-02-17T11:24:43Z</time>
      </trkpt>
      <trkpt lat="43.8539" lon="7.30589">
        <ele>639</ele>
        <time>2013-02-17T11:24:49Z</time>
      </trkpt>
      <trkpt lat="43.85396" lon="7.30604">
        <ele>635.5</ele>
        <time>2013-02-17T11:24:56Z</time>
      </trkpt>
      <trkpt lat="43.85403" lon="7.30611">
        <ele>632.7</ele>
        <time>2013-02-17T11:25:03Z</time>
      </trkpt>
      <trkpt lat="43.85404" lon="7.30626">
        <ele>630.7</ele>
        <time>2013-02-17T11:25:09Z</time>
      </trkpt>
      <trkpt lat="43.85414" lon="7.30637">
        <ele>628.7</ele>
        <time>2013-02-17T11:25:15Z</time>
      </trkpt>
      <trkpt lat="43.85423" lon="7.3065">
        <ele>627.2</ele>
        <time>2013-02-17T11:25:22Z</time>
      </trkpt>
      <trkpt lat="43.85428" lon="7.30654">
        <ele>626</ele>
        <time>2013-02-17T11:27:17Z</time>
      </trkpt>
      <trkpt lat="43.85437" lon="7.30669">
        <ele>622.8</ele>
        <time>2013-02-17T11:27:23Z</time>
      </trkpt>
      <trkpt lat="43.85454" lon="7.30693">
        <ele>620.7</ele>
        <time>2013-02-17T11:27:29Z</time>
      </trkpt>
      <trkpt lat="43.85454" lon="7.30716">
        <ele>618.9</ele>
        <time>2013-02-17T11:27:34Z</time>
      </trkpt>
      <trkpt lat="43.85466" lon="7.30737">
        <ele>617.2</ele>
        <time>2013-02-17T11:27:40Z</time>
      </trkpt>
      <trkpt lat="43.85473" lon="7.30758">
        <ele>615.5</ele>
        <time>2013-02-17T11:27:46Z</time>
      </trkpt>
      <trkpt lat="43.85479" lon="7.30754">
        <ele>612.4</ele>
        <time>2013-02-17T11:27:53Z</time>
      </trkpt>
      <trkpt lat="43.85485" lon="7.30755">
        <ele>609.9</ele>
        <time>2013-02-17T11:27:59Z</time>
      </trkpt>
      <trkpt lat="43.85486" lon="7.30767">
        <ele>608.7</ele>
        <time>2013-02-17T11:28:04Z</time>
      </trkpt>
      <trkpt lat="43.85493" lon="7.30777">
        <ele>606.7</ele>
        <time>2013-02-17T11:28:23Z</time>
      </trkpt>
      <trkpt lat="43.85496" lon="7.30787">
        <ele>605.7</ele>
        <time>2013-02-17T11:28:30Z</time>
      </trkpt>
      <trkpt lat="43.85514" lon="7.30791">
        <ele>599.7</ele>
        <time>2013-02-17T11:28:44Z</time>
      </trkpt>
      <trkpt lat="43.85514" lon="7.30797">
        <ele>596</ele>
        <time>2013-02-17T11:28:49Z</time>
      </trkpt>
      <trkpt lat="43.85524" lon="7.30803">
        <ele>589.8</ele>
        <time>2013-02-17T11:29:04Z</time>
      </trkpt>
      <trkpt lat="43.85534" lon="7.30788">
        <ele>586.5</ele>
        <time>2013-02-17T11:29:10Z</time>
      </trkpt>
      <trkpt lat="43.85539" lon="7.30805">
        <ele>583.5</ele>
        <time>2013-02-17T11:29:16Z</time>
      </trkpt>
      <trkpt lat="43.85544" lon="7.30823">
        <ele>577.1</ele>
        <time>2013-02-17T11:29:22Z</time>
      </trkpt>
      <trkpt lat="43.85543" lon="7.30833">
        <ele>574.5</ele>
        <time>2013-02-17T11:29:28Z</time>
      </trkpt>
      <trkpt lat="43.85543" lon="7.30845">
        <ele>571.4</ele>
        <time>2013-02-17T11:29:34Z</time>
      </trkpt>
      <trkpt lat="43.85537" lon="7.30862">
        <ele>569.7</ele>
        <time>2013-02-17T11:29:39Z</time>
      </trkpt>
      <trkpt lat="43.85534" lon="7.30885">
        <ele>569.1</ele>
        <time>2013-02-17T11:29:44Z</time>
      </trkpt>
      <trkpt lat="43.8553" lon="7.30898">
        <ele>568.1</ele>
        <time>2013-02-17T11:29:50Z</time>
      </trkpt>
      <trkpt lat="43.85545" lon="7.30899">
        <ele>565.6</ele>
        <time>2013-02-17T11:29:56Z</time>
      </trkpt>
      <trkpt lat="43.85554" lon="7.30909">
        <ele>564.8</ele>
        <time>2013-02-17T11:30:01Z</time>
      </trkpt>
      <trkpt lat="43.85565" lon="7.30922">
        <ele>562.9</ele>
        <time>2013-02-17T11:30:09Z</time>
      </trkpt>
      <trkpt lat="43.85568" lon="7.30932">
        <ele>562.2</ele>
        <time>2013-02-17T11:30:14Z</time>
      </trkpt>
      <trkpt lat="43.85567" lon="7.30953">
        <ele>559.5</ele>
        <time>2013-02-17T11:30:20Z</time>
      </trkpt>
      <trkpt lat="43.85577" lon="7.3095">
        <ele>556.4</ele>
        <time>2013-02-17T11:30:26Z</time>
      </trkpt>
      <trkpt lat="43.85587" lon="7.30945">
        <ele>554</ele>
        <time>2013-02-17T11:30:31Z</time>
      </trkpt>
      <trkpt lat="43.85597" lon="7.30936">
        <ele>550.4</ele>
        <time>2013-02-17T11:30:38Z</time>
      </trkpt>
      <trkpt lat="43.85602" lon="7.30925">
        <ele>549.6</ele>
        <time>2013-02-17T11:30:43Z</time>
      </trkpt>
      <trkpt lat="43.85608" lon="7.30927">
        <ele>548.8</ele>
        <time>2013-02-17T11:30:48Z</time>
      </trkpt>
      <trkpt lat="43.85602" lon="7.30941">
        <ele>546.2</ele>
        <time>2013-02-17T11:30:53Z</time>
      </trkpt>
      <trkpt lat="43.856" lon="7.30965">
        <ele>544.3</ele>
        <time>2013-02-17T11:30:59Z</time>
      </trkpt>
      <trkpt lat="43.85612" lon="7.30969">
        <ele>540.1</ele>
        <time>2013-02-17T11:31:13Z</time>
      </trkpt>
      <trkpt lat="43.85618" lon="7.30965">
        <ele>537.7</ele>
        <time>2013-02-17T11:31:21Z</time>
      </trkpt>
      <trkpt lat="43.85635" lon="7.30946">
        <ele>535.2</ele>
        <time>2013-02-17T11:31:27Z</time>
      </trkpt>
      <trkpt lat="43.85661" lon="7.30941">
        <ele>533.4</ele>
        <time>2013-02-17T11:31:33Z</time>
      </trkpt>
      <trkpt lat="43.85665" lon="7.30965">
        <ele>530.9</ele>
        <time>2013-02-17T11:31:39Z</time>
      </trkpt>
      <trkpt lat="43.8567" lon="7.30982">
        <ele>528.8</ele>
        <time>2013-02-17T11:31:45Z</time>
      </trkpt>
      <trkpt lat="43.85683" lon="7.30976">
        <ele>527.9</ele>
        <time>2013-02-17T11:31:51Z</time>
      </trkpt>
      <trkpt lat="43.85692" lon="7.30965">
        <ele>525.1</ele>
        <time>2013-02-17T11:31:58Z</time>
      </trkpt>
      <trkpt lat="43.85697" lon="7.30954">
        <ele>523.6</ele>
        <time>2013-02-17T11:32:03Z</time>
      </trkpt>
      <trkpt lat="43.85704" lon="7.30942">
        <ele>522.6</ele>
        <time>2013-02-17T11:32:09Z</time>
      </trkpt>
      <trkpt lat="43.85712" lon="7.30931">
        <ele>521.4</ele>
        <time>2013-02-17T11:32:15Z</time>
      </trkpt>
      <trkpt lat="43.85723" lon="7.30928">
        <ele>519.8</ele>
        <time>2013-02-17T11:32:24Z</time>
      </trkpt>
      <trkpt lat="43.85732" lon="7.30924">
        <ele>519.5</ele>
        <time>2013-02-17T11:32:30Z</time>
      </trkpt>
      <trkpt lat="43.85741" lon="7.30922">
        <ele>519.6</ele>
        <time>2013-02-17T11:32:36Z</time>
      </trkpt>
      <trkpt lat="43.85753" lon="7.30948">
        <ele>518.4</ele>
        <time>2013-02-17T11:32:42Z</time>
      </trkpt>
      <trkpt lat="43.85768" lon="7.30953">
        <ele>518.8</ele>
        <time>2013-02-17T11:32:47Z</time>
      </trkpt>
      <trkpt lat="43.85777" lon="7.30937">
        <ele>518.5</ele>
        <time>2013-02-17T11:32:53Z</time>
      </trkpt>
      <trkpt lat="43.85785" lon="7.30924">
        <ele>518.5</ele>
        <time>2013-02-17T11:32:58Z</time>
      </trkpt>
      <trkpt lat="43.85792" lon="7.30917">
        <ele>520</ele>
        <time>2013-02-17T11:33:03Z</time>
      </trkpt>
      <trkpt lat="43.85802" lon="7.30916">
        <ele>521.5</ele>
        <time>2013-02-17T11:33:09Z</time>
      </trkpt>
      <trkpt lat="43.85814" lon="7.30917">
        <ele>521.7</ele>
        <time>2013-02-17T11:33:15Z</time>
      </trkpt>
      <trkpt lat="43.85853" lon="7.30915">
        <ele>532</ele>
        <time>2013-02-17T11:37:02Z</time>
      </trkpt>
      <trkpt lat="43.85859" lon="7.3093">
        <ele>532.9</ele>
        <time>2013-02-17T11:37:08Z</time>
      </trkpt>
      <trkpt lat="43.85864" lon="7.30937">
        <ele>533.3</ele>
        <time>2013-02-17T11:37:14Z</time>
      </trkpt>
      <trkpt lat="43.85874" lon="7.30944">
        <ele>533.9</ele>
        <time>2013-02-17T11:37:21Z</time>
      </trkpt>
      <trkpt lat="43.85892" lon="7.30954">
        <ele>536.4</ele>
        <time>2013-02-17T11:37:38Z</time>
      </trkpt>
      <trkpt lat="43.85917" lon="7.30977">
        <ele>539</ele>
        <time>2013-02-17T11:38:02Z</time>
      </trkpt>
      <trkpt lat="43.85923" lon="7.30982">
        <ele>540.2</ele>
        <time>2013-02-17T11:38:18Z</time>
      </trkpt>
      <trkpt lat="43.85936" lon="7.30996">
        <ele>539.4</ele>
        <time>2013-02-17T11:38:23Z</time>
      </trkpt>
      <trkpt lat="43.85953" lon="7.30996">
        <ele>539.4</ele>
        <time>2013-02-17T11:38:29Z</time>
      </trkpt>
      <trkpt lat="43.85979" lon="7.30976">
        <ele>538.8</ele>
        <time>2013-02-17T11:38:59Z</time>
      </trkpt>
      <trkpt lat="43.85986" lon="7.30973">
        <ele>539.1</ele>
        <time>2013-02-17T11:39:04Z</time>
      </trkpt>
      <trkpt lat="43.8599" lon="7.30967">
        <ele>538.6</ele>
        <time>2013-02-17T11:39:25Z</time>
      </trkpt>
      <trkpt lat="43.86" lon="7.30952">
        <ele>538.1</ele>
        <time>2013-02-17T11:39:31Z</time>
      </trkpt>
      <trkpt lat="43.86014" lon="7.30932">
        <ele>537.3</ele>
        <time>2013-02-17T11:39:36Z</time>
      </trkpt>
      <trkpt lat="43.86037" lon="7.30926">
        <ele>535.9</ele>
        <time>2013-02-17T11:39:42Z</time>
      </trkpt>
      <trkpt lat="43.86056" lon="7.30914">
        <ele>533.3</ele>
        <time>2013-02-17T11:39:48Z</time>
      </trkpt>
      <trkpt lat="43.86061" lon="7.30893">
        <ele>531.1</ele>
        <time>2013-02-17T11:39:53Z</time>
      </trkpt>
      <trkpt lat="43.86066" lon="7.30886">
        <ele>528.5</ele>
        <time>2013-02-17T11:39:58Z</time>
      </trkpt>
      <trkpt lat="43.86068" lon="7.3088">
        <ele>527.9</ele>
        <time>2013-02-17T11:40:05Z</time>
      </trkpt>
      <trkpt lat="43.86074" lon="7.30873">
        <ele>526.4</ele>
        <time>2013-02-17T11:40:10Z</time>
      </trkpt>
      <trkpt lat="43.86077" lon="7.30854">
        <ele>523.5</ele>
        <time>2013-02-17T11:40:17Z</time>
      </trkpt>
      <trkpt lat="43.86075" lon="7.30853">
        <ele>511.9</ele>
        <time>2013-02-17T11:41:19Z</time>
      </trkpt>
      <trkpt lat="43.86089" lon="7.30829">
        <ele>509.8</ele>
        <time>2013-02-17T11:41:25Z</time>
      </trkpt>
      <trkpt lat="43.86108" lon="7.30789">
        <ele>507.5</ele>
        <time>2013-02-17T11:41:31Z</time>
      </trkpt>
      <trkpt lat="43.86126" lon="7.30753">
        <ele>506.1</ele>
        <time>2013-02-17T11:41:37Z</time>
      </trkpt>
      <trkpt lat="43.8614" lon="7.30734">
        <ele>504.7</ele>
        <time>2013-02-17T11:41:42Z</time>
      </trkpt>
      <trkpt lat="43.86144" lon="7.30744">
        <ele>502.2</ele>
        <time>2013-02-17T11:41:47Z</time>
      </trkpt>
      <trkpt lat="43.8612" lon="7.30783">
        <ele>495.9</ele>
        <time>2013-02-17T11:41:53Z</time>
      </trkpt>
      <trkpt lat="43.86108" lon="7.30838">
        <ele>491.5</ele>
        <time>2013-02-17T11:41:58Z</time>
      </trkpt>
      <trkpt lat="43.86123" lon="7.30881">
        <ele>489.4</ele>
        <time>2013-02-17T11:42:03Z</time>
      </trkpt>
      <trkpt lat="43.86131" lon="7.30898">
        <ele>485.9</ele>
        <time>2013-02-17T11:42:09Z</time>
      </trkpt>
      <trkpt lat="43.86147" lon="7.30877">
        <ele>486.8</ele>
        <time>2013-02-17T11:42:24Z</time>
      </trkpt>
      <trkpt lat="43.86147" lon="7.30867">
        <ele>488.4</ele>
        <time>2013-02-17T11:42:30Z</time>
      </trkpt>
      <trkpt lat="43.86152" lon="7.30855">
        <ele>487.7</ele>
        <time>2013-02-17T11:42:36Z</time>
      </trkpt>
      <trkpt lat="43.8616" lon="7.30847">
        <ele>489.1</ele>
        <time>2013-02-17T11:42:42Z</time>
      </trkpt>
      <trkpt lat="43.86195" lon="7.30866">
        <ele>489</ele>
        <time>2013-02-17T11:44:51Z</time>
      </trkpt>
      <trkpt lat="43.86232" lon="7.30852">
        <ele>492.2</ele>
        <time>2013-02-17T11:45:26Z</time>
      </trkpt>
      <trkpt lat="43.8624" lon="7.30853">
        <ele>493.4</ele>
        <time>2013-02-17T11:45:32Z</time>
      </trkpt>
      <trkpt lat="43.86249" lon="7.30854">
        <ele>494.6</ele>
        <time>2013-02-17T11:45:38Z</time>
      </trkpt>
      <trkpt lat="43.86254" lon="7.30857">
        <ele>495.7</ele>
        <time>2013-02-17T11:45:43Z</time>
      </trkpt>
      <trkpt lat="43.86262" lon="7.30864">
        <ele>496.6</ele>
        <time>2013-02-17T11:45:49Z</time>
      </trkpt>
      <trkpt lat="43.86268" lon="7.30873">
        <ele>497.7</ele>
        <time>2013-02-17T11:45:55Z</time>
      </trkpt>
      <trkpt lat="43.86258" lon="7.30928">
        <ele>502.1</ele>
        <time>2013-02-17T11:46:29Z</time>
      </trkpt>
      <trkpt lat="43.86253" lon="7.30937">
        <ele>502.2</ele>
        <time>2013-02-17T11:46:34Z</time>
      </trkpt>
      <trkpt lat="43.8629" lon="7.30949">
        <ele>507.6</ele>
        <time>2013-02-17T11:47:00Z</time>
      </trkpt>
      <trkpt lat="43.86297" lon="7.30965">
        <ele>509.8</ele>
        <time>2013-02-17T11:47:26Z</time>
      </trkpt>
      <trkpt lat="43.8629" lon="7.30969">
        <ele>509.7</ele>
        <time>2013-02-17T11:47:31Z</time>
      </trkpt>
      <trkpt lat="43.86282" lon="7.30976">
        <ele>511.7</ele>
        <time>2013-02-17T11:47:37Z</time>
      </trkpt>
      <trkpt lat="43.86274" lon="7.30983">
        <ele>512.8</ele>
        <time>2013-02-17T11:47:42Z</time>
      </trkpt>
      <trkpt lat="43.86268" lon="7.30992">
        <ele>512.5</ele>
        <time>2013-02-17T11:47:48Z</time>
      </trkpt>
      <trkpt lat="43.86264" lon="7.31003">
        <ele>512.2</ele>
        <time>2013-02-17T11:47:53Z</time>
      </trkpt>
      <trkpt lat="43.86255" lon="7.31016">
        <ele>512.6</ele>
        <time>2013-02-17T11:48:00Z</time>
      </trkpt>
      <trkpt lat="43.86248" lon="7.31025">
        <ele>513.8</ele>
        <time>2013-02-17T11:48:05Z</time>
      </trkpt>
      <trkpt lat="43.86242" lon="7.31039">
        <ele>514.1</ele>
        <time>2013-02-17T11:48:11Z</time>
      </trkpt>
      <trkpt lat="43.86235" lon="7.31047">
        <ele>515.1</ele>
        <time>2013-02-17T11:48:16Z</time>
      </trkpt>
      <trkpt lat="43.86226" lon="7.31052">
        <ele>516.3</ele>
        <time>2013-02-17T11:48:21Z</time>
      </trkpt>
      <trkpt lat="43.86217" lon="7.31056">
        <ele>518.2</ele>
        <time>2013-02-17T11:48:27Z</time>
      </trkpt>
      <trkpt lat="43.8621" lon="7.3106">
        <ele>519.1</ele>
        <time>2013-02-17T11:48:33Z</time>
      </trkpt>
      <trkpt lat="43.86216" lon="7.31068">
        <ele>520.6</ele>
        <time>2013-02-17T11:48:44Z</time>
      </trkpt>
      <trkpt lat="43.86224" lon="7.31073">
        <ele>521.6</ele>
        <time>2013-02-17T11:48:50Z</time>
      </trkpt>
      <trkpt lat="43.86229" lon="7.31082">
        <ele>521.7</ele>
        <time>2013-02-17T11:48:56Z</time>
      </trkpt>
      <trkpt lat="43.86234" lon="7.3109">
        <ele>522.8</ele>
        <time>2013-02-17T11:49:01Z</time>
      </trkpt>
      <trkpt lat="43.86231" lon="7.31107">
        <ele>523.1</ele>
        <time>2013-02-17T11:49:10Z</time>
      </trkpt>
      <trkpt lat="43.86218" lon="7.31131">
        <ele>524.2</ele>
        <time>2013-02-17T11:49:29Z</time>
      </trkpt>
      <trkpt lat="43.86213" lon="7.31138">
        <ele>525</ele>
        <time>2013-02-17T11:49:35Z</time>
      </trkpt>
      <trkpt lat="43.86205" lon="7.31146">
        <ele>527.4</ele>
        <time>2013-02-17T11:49:42Z</time>
      </trkpt>
      <trkpt lat="43.862" lon="7.31153">
        <ele>529.7</ele>
        <time>2013-02-17T11:49:48Z</time>
      </trkpt>
      <trkpt lat="43.86196" lon="7.3116">
        <ele>530.9</ele>
        <time>2013-02-17T11:49:53Z</time>
      </trkpt>
      <trkpt lat="43.8619" lon="7.31169">
        <ele>533.1</ele>
        <time>2013-02-17T11:50:00Z</time>
      </trkpt>
      <trkpt lat="43.86187" lon="7.31176">
        <ele>533.8</ele>
        <time>2013-02-17T11:50:06Z</time>
      </trkpt>
      <trkpt lat="43.86179" lon="7.31198">
        <ele>535.3</ele>
        <time>2013-02-17T11:50:23Z</time>
      </trkpt>
      <trkpt lat="43.86177" lon="7.31207">
        <ele>536.9</ele>
        <time>2013-02-17T11:50:29Z</time>
      </trkpt>
      <trkpt lat="43.86173" lon="7.31216">
        <ele>538.2</ele>
        <time>2013-02-17T11:50:35Z</time>
      </trkpt>
      <trkpt lat="43.86167" lon="7.31226">
        <ele>538.7</ele>
        <time>2013-02-17T11:50:41Z</time>
      </trkpt>
      <trkpt lat="43.8616" lon="7.31237">
        <ele>539.8</ele>
        <time>2013-02-17T11:50:46Z</time>
      </trkpt>
      <trkpt lat="43.86162" lon="7.31254">
        <ele>539</ele>
        <time>2013-02-17T11:50:52Z</time>
      </trkpt>
      <trkpt lat="43.86164" lon="7.31279">
        <ele>541.7</ele>
        <time>2013-02-17T11:51:05Z</time>
      </trkpt>
      <trkpt lat="43.86163" lon="7.31295">
        <ele>541.6</ele>
        <time>2013-02-17T11:51:11Z</time>
      </trkpt>
      <trkpt lat="43.86162" lon="7.31305">
        <ele>541.6</ele>
        <time>2013-02-17T11:51:17Z</time>
      </trkpt>
      <trkpt lat="43.86157" lon="7.31316">
        <ele>542.8</ele>
        <time>2013-02-17T11:51:22Z</time>
      </trkpt>
      <trkpt lat="43.86155" lon="7.31332">
        <ele>542.1</ele>
        <time>2013-02-17T11:51:27Z</time>
      </trkpt>
      <trkpt lat="43.86144" lon="7.31355">
        <ele>541.7</ele>
        <time>2013-02-17T11:51:33Z</time>
      </trkpt>
      <trkpt lat="43.86134" lon="7.31367">
        <ele>542</ele>
        <time>2013-02-17T11:51:40Z</time>
      </trkpt>
      <trkpt lat="43.86138" lon="7.31377">
        <ele>543.3</ele>
        <time>2013-02-17T11:51:45Z</time>
      </trkpt>
      <trkpt lat="43.86148" lon="7.31384">
        <ele>544.8</ele>
        <time>2013-02-17T11:51:50Z</time>
      </trkpt>
      <trkpt lat="43.86151" lon="7.31397">
        <ele>545.8</ele>
        <time>2013-02-17T11:51:56Z</time>
      </trkpt>
      <trkpt lat="43.86141" lon="7.31412">
        <ele>545.7</ele>
        <time>2013-02-17T11:52:01Z</time>
      </trkpt>
      <trkpt lat="43.86137" lon="7.31427">
        <ele>545.5</ele>
        <time>2013-02-17T11:52:06Z</time>
      </trkpt>
      <trkpt lat="43.8611" lon="7.31435">
        <ele>550.7</ele>
        <time>2013-02-17T11:52:41Z</time>
      </trkpt>
      <trkpt lat="43.861" lon="7.31441">
        <ele>549.5</ele>
        <time>2013-02-17T11:52:46Z</time>
      </trkpt>
      <trkpt lat="43.86089" lon="7.3145">
        <ele>548</ele>
        <time>2013-02-17T11:52:51Z</time>
      </trkpt>
      <trkpt lat="43.86081" lon="7.31464">
        <ele>547.9</ele>
        <time>2013-02-17T11:52:58Z</time>
      </trkpt>
      <trkpt lat="43.86078" lon="7.31477">
        <ele>548.8</ele>
        <time>2013-02-17T11:53:03Z</time>
      </trkpt>
      <trkpt lat="43.8607" lon="7.31489">
        <ele>548.9</ele>
        <time>2013-02-17T11:53:11Z</time>
      </trkpt>
      <trkpt lat="43.86061" lon="7.31488">
        <ele>549.4</ele>
        <time>2013-02-17T11:53:16Z</time>
      </trkpt>
      <trkpt lat="43.86044" lon="7.31534">
        <ele>552.7</ele>
        <time>2013-02-17T12:02:55Z</time>
      </trkpt>
      <trkpt lat="43.86034" lon="7.31494">
        <ele>573.4</ele>
        <time>2013-02-17T12:14:03Z</time>
      </trkpt>
      <trkpt lat="43.86025" lon="7.31504">
        <ele>554</ele>
        <time>2013-02-17T12:16:49Z</time>
      </trkpt>
      <trkpt lat="43.86023" lon="7.31555">
        <ele>561.1</ele>
        <time>2013-02-17T12:18:16Z</time>
      </trkpt>
      <trkpt lat="43.85993" lon="7.31589">
        <ele>566.1</ele>
        <time>2013-02-17T12:19:12Z</time>
      </trkpt>
      <trkpt lat="43.85958" lon="7.31608">
        <ele>576</ele>
        <time>2013-02-17T12:20:28Z</time>
      </trkpt>
      <trkpt lat="43.85932" lon="7.31651">
        <ele>581</ele>
        <time>2013-02-17T12:21:16Z</time>
      </trkpt>
      <trkpt lat="43.85909" lon="7.31689">
        <ele>592.3</ele>
        <time>2013-02-17T12:22:27Z</time>
      </trkpt>
      <trkpt lat="43.85896" lon="7.31717">
        <ele>600.5</ele>
        <time>2013-02-17T12:23:16Z</time>
      </trkpt>
      <trkpt lat="43.85884" lon="7.31722">
        <ele>607.1</ele>
        <time>2013-02-17T12:23:43Z</time>
      </trkpt>
      <trkpt lat="43.85864" lon="7.31762">
        <ele>624.7</ele>
        <time>2013-02-17T12:25:18Z</time>
      </trkpt>
      <trkpt lat="43.85886" lon="7.31796">
        <ele>636</ele>
        <time>2013-02-17T12:25:59Z</time>
      </trkpt>
      <trkpt lat="43.85905" lon="7.31804">
        <ele>644.1</ele>
        <time>2013-02-17T12:26:39Z</time>
      </trkpt>
      <trkpt lat="43.85913" lon="7.31805">
        <ele>646.5</ele>
        <time>2013-02-17T12:26:45Z</time>
      </trkpt>
      <trkpt lat="43.85925" lon="7.31809">
        <ele>649.2</ele>
        <time>2013-02-17T12:26:55Z</time>
      </trkpt>
      <trkpt lat="43.8596" lon="7.31845">
        <ele>654.8</ele>
        <time>2013-02-17T12:27:42Z</time>
      </trkpt>
      <trkpt lat="43.85987" lon="7.31887">
        <ele>659.8</ele>
        <time>2013-02-17T12:28:26Z</time>
      </trkpt>
      <trkpt lat="43.86015" lon="7.31919">
        <ele>667.5</ele>
        <time>2013-02-17T12:29:25Z</time>
      </trkpt>
      <trkpt lat="43.86019" lon="7.31929">
        <ele>668.2</ele>
        <time>2013-02-17T12:29:31Z</time>
      </trkpt>
      <trkpt lat="43.86019" lon="7.31941">
        <ele>670.1</ele>
        <time>2013-02-17T12:29:38Z</time>
      </trkpt>
      <trkpt lat="43.86027" lon="7.31998">
        <ele>674.6</ele>
        <time>2013-02-17T12:30:33Z</time>
      </trkpt>
      <trkpt lat="43.86031" lon="7.3205">
        <ele>683.6</ele>
        <time>2013-02-17T12:31:33Z</time>
      </trkpt>
      <trkpt lat="43.86022" lon="7.32055">
        <ele>687.2</ele>
        <time>2013-02-17T12:40:21Z</time>
      </trkpt>
      <trkpt lat="43.86018" lon="7.32051">
        <ele>688.3</ele>
        <time>2013-02-17T12:40:27Z</time>
      </trkpt>
      <trkpt lat="43.86014" lon="7.32059">
        <ele>692.1</ele>
        <time>2013-02-17T12:40:44Z</time>
      </trkpt>
      <trkpt lat="43.86005" lon="7.32074">
        <ele>691.8</ele>
        <time>2013-02-17T12:40:49Z</time>
      </trkpt>
      <trkpt lat="43.85987" lon="7.32099">
        <ele>690.9</ele>
        <time>2013-02-17T12:40:55Z</time>
      </trkpt>
      <trkpt lat="43.85965" lon="7.32109">
        <ele>689.7</ele>
        <time>2013-02-17T12:41:00Z</time>
      </trkpt>
      <trkpt lat="43.85944" lon="7.32118">
        <ele>688.4</ele>
        <time>2013-02-17T12:41:06Z</time>
      </trkpt>
      <trkpt lat="43.85928" lon="7.32131">
        <ele>686.9</ele>
        <time>2013-02-17T12:41:11Z</time>
      </trkpt>
      <trkpt lat="43.85906" lon="7.32138">
        <ele>684.6</ele>
        <time>2013-02-17T12:41:17Z</time>
      </trkpt>
      <trkpt lat="43.85893" lon="7.32151">
        <ele>682.8</ele>
        <time>2013-02-17T12:41:24Z</time>
      </trkpt>
      <trkpt lat="43.8589" lon="7.32162">
        <ele>669.9</ele>
        <time>2013-02-17T12:42:31Z</time>
      </trkpt>
      <trkpt lat="43.85873" lon="7.32176">
        <ele>667.1</ele>
        <time>2013-02-17T12:43:13Z</time>
      </trkpt>
      <trkpt lat="43.85857" lon="7.32183">
        <ele>667</ele>
        <time>2013-02-17T12:43:18Z</time>
      </trkpt>
      <trkpt lat="43.85839" lon="7.32182">
        <ele>660.9</ele>
        <time>2013-02-17T12:43:51Z</time>
      </trkpt>
      <trkpt lat="43.85817" lon="7.32181">
        <ele>660.7</ele>
        <time>2013-02-17T12:43:57Z</time>
      </trkpt>
      <trkpt lat="43.85795" lon="7.32176">
        <ele>659</ele>
        <time>2013-02-17T12:44:03Z</time>
      </trkpt>
      <trkpt lat="43.85766" lon="7.32194">
        <ele>657.9</ele>
        <time>2013-02-17T12:44:09Z</time>
      </trkpt>
      <trkpt lat="43.85739" lon="7.32201">
        <ele>656.4</ele>
        <time>2013-02-17T12:44:15Z</time>
      </trkpt>
      <trkpt lat="43.85723" lon="7.3219">
        <ele>654.2</ele>
        <time>2013-02-17T12:44:21Z</time>
      </trkpt>
      <trkpt lat="43.85712" lon="7.32204">
        <ele>647.1</ele>
        <time>2013-02-17T12:44:51Z</time>
      </trkpt>
      <trkpt lat="43.85705" lon="7.3221">
        <ele>647.1</ele>
        <time>2013-02-17T12:44:56Z</time>
      </trkpt>
      <trkpt lat="43.85696" lon="7.32215">
        <ele>646.7</ele>
        <time>2013-02-17T12:45:02Z</time>
      </trkpt>
      <trkpt lat="43.85681" lon="7.32225">
        <ele>644.6</ele>
        <time>2013-02-17T12:45:35Z</time>
      </trkpt>
      <trkpt lat="43.85669" lon="7.32248">
        <ele>642.9</ele>
        <time>2013-02-17T12:45:40Z</time>
      </trkpt>
      <trkpt lat="43.85654" lon="7.32268">
        <ele>641.2</ele>
        <time>2013-02-17T12:45:45Z</time>
      </trkpt>
      <trkpt lat="43.85629" lon="7.32262">
        <ele>640.3</ele>
        <time>2013-02-17T12:45:51Z</time>
      </trkpt>
      <trkpt lat="43.85621" lon="7.32236">
        <ele>639</ele>
        <time>2013-02-17T12:45:57Z</time>
      </trkpt>
      <trkpt lat="43.85615" lon="7.32219">
        <ele>637.3</ele>
        <time>2013-02-17T12:46:04Z</time>
      </trkpt>
      <trkpt lat="43.85608" lon="7.32231">
        <ele>634.1</ele>
        <time>2013-02-17T12:46:10Z</time>
      </trkpt>
      <trkpt lat="43.85601" lon="7.32238">
        <ele>632.4</ele>
        <time>2013-02-17T12:46:15Z</time>
      </trkpt>
      <trkpt lat="43.85592" lon="7.3225">
        <ele>630.5</ele>
        <time>2013-02-17T12:46:21Z</time>
      </trkpt>
      <trkpt lat="43.85587" lon="7.32268">
        <ele>628.9</ele>
        <time>2013-02-17T12:46:27Z</time>
      </trkpt>
      <trkpt lat="43.85579" lon="7.32276">
        <ele>627.6</ele>
        <time>2013-02-17T12:46:32Z</time>
      </trkpt>
      <trkpt lat="43.85568" lon="7.32277">
        <ele>626.4</ele>
        <time>2013-02-17T12:46:38Z</time>
      </trkpt>
      <trkpt lat="43.85556" lon="7.3228">
        <ele>625</ele>
        <time>2013-02-17T12:46:45Z</time>
      </trkpt>
      <trkpt lat="43.85545" lon="7.32277">
        <ele>622.9</ele>
        <time>2013-02-17T12:46:51Z</time>
      </trkpt>
      <trkpt lat="43.85529" lon="7.32287">
        <ele>621.7</ele>
        <time>2013-02-17T12:46:57Z</time>
      </trkpt>
      <trkpt lat="43.85515" lon="7.32295">
        <ele>620.5</ele>
        <time>2013-02-17T12:47:03Z</time>
      </trkpt>
      <trkpt lat="43.85503" lon="7.32307">
        <ele>619.4</ele>
        <time>2013-02-17T12:47:09Z</time>
      </trkpt>
      <trkpt lat="43.85495" lon="7.32317">
        <ele>620</ele>
        <time>2013-02-17T12:47:15Z</time>
      </trkpt>
      <trkpt lat="43.85487" lon="7.32338">
        <ele>618.4</ele>
        <time>2013-02-17T12:47:21Z</time>
      </trkpt>
      <trkpt lat="43.85475" lon="7.32359">
        <ele>617.7</ele>
        <time>2013-02-17T12:47:27Z</time>
      </trkpt>
      <trkpt lat="43.85475" lon="7.32378">
        <ele>617.4</ele>
        <time>2013-02-17T12:47:33Z</time>
      </trkpt>
      <trkpt lat="43.85474" lon="7.32403">
        <ele>616.7</ele>
        <time>2013-02-17T12:47:39Z</time>
      </trkpt>
      <trkpt lat="43.85464" lon="7.32431">
        <ele>615.5</ele>
        <time>2013-02-17T12:47:45Z</time>
      </trkpt>
      <trkpt lat="43.85448" lon="7.32463">
        <ele>615.1</ele>
        <time>2013-02-17T12:47:51Z</time>
      </trkpt>
      <trkpt lat="43.85429" lon="7.32488">
        <ele>613.7</ele>
        <time>2013-02-17T12:47:57Z</time>
      </trkpt>
      <trkpt lat="43.85409" lon="7.32504">
        <ele>611.4</ele>
        <time>2013-02-17T12:48:03Z</time>
      </trkpt>
      <trkpt lat="43.85407" lon="7.3251">
        <ele>608.2</ele>
        <time>2013-02-17T12:48:35Z</time>
      </trkpt>
      <trkpt lat="43.85392" lon="7.32526">
        <ele>606</ele>
        <time>2013-02-17T12:48:40Z</time>
      </trkpt>
      <trkpt lat="43.85378" lon="7.32551">
        <ele>604.2</ele>
        <time>2013-02-17T12:48:45Z</time>
      </trkpt>
      <trkpt lat="43.85364" lon="7.32596">
        <ele>601.5</ele>
        <time>2013-02-17T12:48:51Z</time>
      </trkpt>
      <trkpt lat="43.85365" lon="7.32644">
        <ele>598.5</ele>
        <time>2013-02-17T12:48:57Z</time>
      </trkpt>
      <trkpt lat="43.85364" lon="7.3265">
        <ele>594.8</ele>
        <time>2013-02-17T12:49:19Z</time>
      </trkpt>
      <trkpt lat="43.85368" lon="7.32667">
        <ele>594.1</ele>
        <time>2013-02-17T12:49:25Z</time>
      </trkpt>
      <trkpt lat="43.85372" lon="7.32684">
        <ele>593.3</ele>
        <time>2013-02-17T12:49:31Z</time>
      </trkpt>
      <trkpt lat="43.85374" lon="7.32699">
        <ele>593.1</ele>
        <time>2013-02-17T12:49:36Z</time>
      </trkpt>
      <trkpt lat="43.85373" lon="7.32712">
        <ele>591.9</ele>
        <time>2013-02-17T12:49:42Z</time>
      </trkpt>
      <trkpt lat="43.85368" lon="7.32711">
        <ele>591.2</ele>
        <time>2013-02-17T12:50:16Z</time>
      </trkpt>
      <trkpt lat="43.8536" lon="7.32694">
        <ele>591.4</ele>
        <time>2013-02-17T12:50:21Z</time>
      </trkpt>
      <trkpt lat="43.85345" lon="7.3267">
        <ele>591.8</ele>
        <time>2013-02-17T12:50:27Z</time>
      </trkpt>
      <trkpt lat="43.85324" lon="7.32654">
        <ele>591.6</ele>
        <time>2013-02-17T12:50:33Z</time>
      </trkpt>
      <trkpt lat="43.85303" lon="7.3263">
        <ele>590.4</ele>
        <time>2013-02-17T12:50:39Z</time>
      </trkpt>
      <trkpt lat="43.85274" lon="7.32606">
        <ele>588.9</ele>
        <time>2013-02-17T12:50:45Z</time>
      </trkpt>
      <trkpt lat="43.85248" lon="7.32558">
        <ele>586.8</ele>
        <time>2013-02-17T12:50:51Z</time>
      </trkpt>
      <trkpt lat="43.85245" lon="7.3251">
        <ele>585.5</ele>
        <time>2013-02-17T12:50:56Z</time>
      </trkpt>
      <trkpt lat="43.85226" lon="7.32465">
        <ele>583.6</ele>
        <time>2013-02-17T12:51:02Z</time>
      </trkpt>
      <trkpt lat="43.85204" lon="7.32454">
        <ele>580.8</ele>
        <time>2013-02-17T12:51:07Z</time>
      </trkpt>
      <trkpt lat="43.85188" lon="7.32441">
        <ele>579.6</ele>
        <time>2013-02-17T12:51:13Z</time>
      </trkpt>
      <trkpt lat="43.85184" lon="7.32443">
        <ele>575.3</ele>
        <time>2013-02-17T12:51:19Z</time>
      </trkpt>
      <trkpt lat="43.852" lon="7.32457">
        <ele>564.9</ele>
        <time>2013-02-17T12:52:20Z</time>
      </trkpt>
      <trkpt lat="43.85202" lon="7.32468">
        <ele>565.4</ele>
        <time>2013-02-17T12:52:25Z</time>
      </trkpt>
      <trkpt lat="43.85206" lon="7.3248">
        <ele>566.6</ele>
        <time>2013-02-17T12:52:31Z</time>
      </trkpt>
      <trkpt lat="43.852" lon="7.32496">
        <ele>566.9</ele>
        <time>2013-02-17T12:52:39Z</time>
      </trkpt>
      <trkpt lat="43.85183" lon="7.32534">
        <ele>570.1</ele>
        <time>2013-02-17T12:53:01Z</time>
      </trkpt>
      <trkpt lat="43.85175" lon="7.32554">
        <ele>571.4</ele>
        <time>2013-02-17T12:53:14Z</time>
      </trkpt>
      <trkpt lat="43.85175" lon="7.32565">
        <ele>573.3</ele>
        <time>2013-02-17T12:53:20Z</time>
      </trkpt>
      <trkpt lat="43.85174" lon="7.32589">
        <ele>575.2</ele>
        <time>2013-02-17T12:53:35Z</time>
      </trkpt>
      <trkpt lat="43.85153" lon="7.32555">
        <ele>579.8</ele>
        <time>2013-02-17T12:55:21Z</time>
      </trkpt>
      <trkpt lat="43.85157" lon="7.32522">
        <ele>579.7</ele>
        <time>2013-02-17T12:55:40Z</time>
      </trkpt>
      <trkpt lat="43.85152" lon="7.32469">
        <ele>586.1</ele>
        <time>2013-02-17T12:58:36Z</time>
      </trkpt>
      <trkpt lat="43.85116" lon="7.32473">
        <ele>589.4</ele>
        <time>2013-02-17T12:59:05Z</time>
      </trkpt>
      <trkpt lat="43.85102" lon="7.32506">
        <ele>590.9</ele>
        <time>2013-02-17T13:00:08Z</time>
      </trkpt>
      <trkpt lat="43.85091" lon="7.32527">
        <ele>590.8</ele>
        <time>2013-02-17T13:00:13Z</time>
      </trkpt>
      <trkpt lat="43.85079" lon="7.32544">
        <ele>590.1</ele>
        <time>2013-02-17T13:00:19Z</time>
      </trkpt>
      <trkpt lat="43.85063" lon="7.32563">
        <ele>589.9</ele>
        <time>2013-02-17T13:00:25Z</time>
      </trkpt>
      <trkpt lat="43.8504" lon="7.32588">
        <ele>587.4</ele>
        <time>2013-02-17T13:00:31Z</time>
      </trkpt>
      <trkpt lat="43.85022" lon="7.32615">
        <ele>586</ele>
        <time>2013-02-17T13:00:36Z</time>
      </trkpt>
      <trkpt lat="43.85005" lon="7.32649">
        <ele>583.5</ele>
        <time>2013-02-17T13:00:41Z</time>
      </trkpt>
      <trkpt lat="43.84997" lon="7.32691">
        <ele>580</ele>
        <time>2013-02-17T13:00:47Z</time>
      </trkpt>
      <trkpt lat="43.84986" lon="7.3274">
        <ele>576.8</ele>
        <time>2013-02-17T13:00:53Z</time>
      </trkpt>
      <trkpt lat="43.84974" lon="7.32768">
        <ele>574</ele>
        <time>2013-02-17T13:00:59Z</time>
      </trkpt>
      <trkpt lat="43.84973" lon="7.32805">
        <ele>571.4</ele>
        <time>2013-02-17T13:01:04Z</time>
      </trkpt>
      <trkpt lat="43.84959" lon="7.32809">
        <ele>569</ele>
        <time>2013-02-17T13:01:09Z</time>
      </trkpt>
      <trkpt lat="43.84931" lon="7.32816">
        <ele>565.7</ele>
        <time>2013-02-17T13:01:15Z</time>
      </trkpt>
      <trkpt lat="43.84904" lon="7.32824">
        <ele>562.9</ele>
        <time>2013-02-17T13:01:21Z</time>
      </trkpt>
      <trkpt lat="43.84892" lon="7.3284">
        <ele>560.1</ele>
        <time>2013-02-17T13:01:26Z</time>
      </trkpt>
      <trkpt lat="43.84871" lon="7.32839">
        <ele>556.3</ele>
        <time>2013-02-17T13:01:32Z</time>
      </trkpt>
      <trkpt lat="43.84856" lon="7.3284">
        <ele>553</ele>
        <time>2013-02-17T13:01:37Z</time>
      </trkpt>
      <trkpt lat="43.84834" lon="7.32848">
        <ele>548.6</ele>
        <time>2013-02-17T13:01:43Z</time>
      </trkpt>
      <trkpt lat="43.84818" lon="7.32846">
        <ele>545.4</ele>
        <time>2013-02-17T13:01:49Z</time>
      </trkpt>
      <trkpt lat="43.84805" lon="7.3284">
        <ele>542.9</ele>
        <time>2013-02-17T13:01:55Z</time>
      </trkpt>
      <trkpt lat="43.84795" lon="7.32828">
        <ele>540.4</ele>
        <time>2013-02-17T13:02:01Z</time>
      </trkpt>
      <trkpt lat="43.8479" lon="7.32825">
        <ele>536.5</ele>
        <time>2013-02-17T13:02:07Z</time>
      </trkpt>
      <trkpt lat="43.84786" lon="7.32833">
        <ele>534.1</ele>
        <time>2013-02-17T13:02:12Z</time>
      </trkpt>
      <trkpt lat="43.84781" lon="7.32852">
        <ele>532.8</ele>
        <time>2013-02-17T13:02:18Z</time>
      </trkpt>
      <trkpt lat="43.84778" lon="7.32875">
        <ele>529.5</ele>
        <time>2013-02-17T13:02:23Z</time>
      </trkpt>
      <trkpt lat="43.84773" lon="7.32892">
        <ele>525.4</ele>
        <time>2013-02-17T13:02:28Z</time>
      </trkpt>
      <trkpt lat="43.84772" lon="7.32905">
        <ele>522.5</ele>
        <time>2013-02-17T13:02:33Z</time>
      </trkpt>
      <trkpt lat="43.84777" lon="7.32919">
        <ele>517.4</ele>
        <time>2013-02-17T13:02:39Z</time>
      </trkpt>
      <trkpt lat="43.84768" lon="7.32938">
        <ele>516.2</ele>
        <time>2013-02-17T13:02:45Z</time>
      </trkpt>
      <trkpt lat="43.84766" lon="7.32946">
        <ele>509.9</ele>
        <time>2013-02-17T13:03:36Z</time>
      </trkpt>
      <trkpt lat="43.84753" lon="7.32958">
        <ele>508.2</ele>
        <time>2013-02-17T13:03:42Z</time>
      </trkpt>
      <trkpt lat="43.84741" lon="7.32969">
        <ele>507.3</ele>
        <time>2013-02-17T13:03:48Z</time>
      </trkpt>
      <trkpt lat="43.84731" lon="7.32978">
        <ele>507.2</ele>
        <time>2013-02-17T13:03:54Z</time>
      </trkpt>
      <trkpt lat="43.84721" lon="7.32983">
        <ele>506.3</ele>
        <time>2013-02-17T13:04:03Z</time>
      </trkpt>
      <trkpt lat="43.84726" lon="7.32994">
        <ele>504.3</ele>
        <time>2013-02-17T13:04:09Z</time>
      </trkpt>
      <trkpt lat="43.84731" lon="7.33005">
        <ele>503.9</ele>
        <time>2013-02-17T13:04:14Z</time>
      </trkpt>
      <trkpt lat="43.84737" lon="7.33019">
        <ele>504</ele>
        <time>2013-02-17T13:04:20Z</time>
      </trkpt>
      <trkpt lat="43.84741" lon="7.3303">
        <ele>504.2</ele>
        <time>2013-02-17T13:04:25Z</time>
      </trkpt>
      <trkpt lat="43.84744" lon="7.33046">
        <ele>504</ele>
        <time>2013-02-17T13:04:32Z</time>
      </trkpt>
      <trkpt lat="43.84744" lon="7.3306">
        <ele>504.6</ele>
        <time>2013-02-17T13:04:37Z</time>
      </trkpt>
      <trkpt lat="43.84744" lon="7.33076">
        <ele>504.7</ele>
        <time>2013-02-17T13:04:43Z</time>
      </trkpt>
      <trkpt lat="43.84746" lon="7.33092">
        <ele>504.2</ele>
        <time>2013-02-17T13:04:48Z</time>
      </trkpt>
      <trkpt lat="43.84747" lon="7.33111">
        <ele>503.2</ele>
        <time>2013-02-17T13:04:54Z</time>
      </trkpt>
      <trkpt lat="43.84744" lon="7.33131">
        <ele>501.2</ele>
        <time>2013-02-17T13:05:01Z</time>
      </trkpt>
      <trkpt lat="43.84748" lon="7.33151">
        <ele>500.3</ele>
        <time>2013-02-17T13:05:06Z</time>
      </trkpt>
      <trkpt lat="43.8475" lon="7.33164">
        <ele>498.4</ele>
        <time>2013-02-17T13:05:12Z</time>
      </trkpt>
      <trkpt lat="43.84759" lon="7.33183">
        <ele>495.9</ele>
        <time>2013-02-17T13:05:18Z</time>
      </trkpt>
      <trkpt lat="43.84762" lon="7.33203">
        <ele>493.4</ele>
        <time>2013-02-17T13:05:23Z</time>
      </trkpt>
      <trkpt lat="43.84758" lon="7.33222">
        <ele>492.4</ele>
        <time>2013-02-17T13:05:29Z</time>
      </trkpt>
      <trkpt lat="43.84763" lon="7.33234">
        <ele>491.1</ele>
        <time>2013-02-17T13:05:34Z</time>
      </trkpt>
      <trkpt lat="43.84768" lon="7.33251">
        <ele>487.3</ele>
        <time>2013-02-17T13:05:40Z</time>
      </trkpt>
      <trkpt lat="43.84771" lon="7.3327">
        <ele>487.1</ele>
        <time>2013-02-17T13:05:45Z</time>
      </trkpt>
      <trkpt lat="43.84771" lon="7.33287">
        <ele>487.2</ele>
        <time>2013-02-17T13:05:51Z</time>
      </trkpt>
      <trkpt lat="43.84777" lon="7.33303">
        <ele>486.3</ele>
        <time>2013-02-17T13:05:57Z</time>
      </trkpt>
      <trkpt lat="43.84772" lon="7.33323">
        <ele>484.7</ele>
        <time>2013-02-17T13:06:03Z</time>
      </trkpt>
      <trkpt lat="43.84776" lon="7.33338">
        <ele>485.3</ele>
        <time>2013-02-17T13:06:09Z</time>
      </trkpt>
      <trkpt lat="43.84778" lon="7.33357">
        <ele>483.8</ele>
        <time>2013-02-17T13:06:15Z</time>
      </trkpt>
      <trkpt lat="43.84773" lon="7.3338">
        <ele>482.1</ele>
        <time>2013-02-17T13:06:21Z</time>
      </trkpt>
      <trkpt lat="43.84755" lon="7.33394">
        <ele>478.5</ele>
        <time>2013-02-17T13:06:27Z</time>
      </trkpt>
      <trkpt lat="43.84746" lon="7.33395">
        <ele>479.7</ele>
        <time>2013-02-17T13:06:34Z</time>
      </trkpt>
      <trkpt lat="43.8474" lon="7.33397">
        <ele>480.5</ele>
        <time>2013-02-17T13:06:39Z</time>
      </trkpt>
      <trkpt lat="43.84745" lon="7.33404">
        <ele>479.4</ele>
        <time>2013-02-17T13:06:46Z</time>
      </trkpt>
      <trkpt lat="43.84753" lon="7.33411">
        <ele>477.5</ele>
        <time>2013-02-17T13:06:52Z</time>
      </trkpt>
      <trkpt lat="43.84761" lon="7.33421">
        <ele>480.7</ele>
        <time>2013-02-17T13:07:14Z</time>
      </trkpt>
      <trkpt lat="43.8476" lon="7.33436">
        <ele>481.6</ele>
        <time>2013-02-17T13:07:21Z</time>
      </trkpt>
      <trkpt lat="43.84751" lon="7.33454">
        <ele>481.7</ele>
        <time>2013-02-17T13:07:27Z</time>
      </trkpt>
      <trkpt lat="43.84739" lon="7.33474">
        <ele>483.2</ele>
        <time>2013-02-17T13:07:33Z</time>
      </trkpt>
      <trkpt lat="43.84737" lon="7.33488">
        <ele>483.4</ele>
        <time>2013-02-17T13:07:39Z</time>
      </trkpt>
      <trkpt lat="43.84737" lon="7.33505">
        <ele>483</ele>
        <time>2013-02-17T13:07:45Z</time>
      </trkpt>
      <trkpt lat="43.84732" lon="7.33519">
        <ele>482.6</ele>
        <time>2013-02-17T13:07:51Z</time>
      </trkpt>
      <trkpt lat="43.84726" lon="7.33532">
        <ele>483.2</ele>
        <time>2013-02-17T13:07:56Z</time>
      </trkpt>
      <trkpt lat="43.84733" lon="7.33535">
        <ele>479.1</ele>
        <time>2013-02-17T13:08:20Z</time>
      </trkpt>
      <trkpt lat="43.84738" lon="7.33552">
        <ele>479.4</ele>
        <time>2013-02-17T13:08:26Z</time>
      </trkpt>
      <trkpt lat="43.84746" lon="7.33568">
        <ele>478.9</ele>
        <time>2013-02-17T13:08:32Z</time>
      </trkpt>
      <trkpt lat="43.8475" lon="7.33583">
        <ele>477.8</ele>
        <time>2013-02-17T13:08:37Z</time>
      </trkpt>
      <trkpt lat="43.84753" lon="7.33607">
        <ele>476.9</ele>
        <time>2013-02-17T13:08:43Z</time>
      </trkpt>
      <trkpt lat="43.84753" lon="7.33625">
        <ele>477.4</ele>
        <time>2013-02-17T13:08:48Z</time>
      </trkpt>
      <trkpt lat="43.84746" lon="7.33643">
        <ele>477.5</ele>
        <time>2013-02-17T13:08:54Z</time>
      </trkpt>
      <trkpt lat="43.84741" lon="7.33665">
        <ele>478.4</ele>
        <time>2013-02-17T13:08:59Z</time>
      </trkpt>
      <trkpt lat="43.84738" lon="7.33679">
        <ele>478.3</ele>
        <time>2013-02-17T13:09:05Z</time>
      </trkpt>
      <trkpt lat="43.84721" lon="7.33696">
        <ele>472.8</ele>
        <time>2013-02-17T13:09:58Z</time>
      </trkpt>
      <trkpt lat="43.84726" lon="7.33707">
        <ele>471.9</ele>
        <time>2013-02-17T13:10:03Z</time>
      </trkpt>
      <trkpt lat="43.84732" lon="7.3372">
        <ele>470.9</ele>
        <time>2013-02-17T13:10:09Z</time>
      </trkpt>
      <trkpt lat="43.84738" lon="7.33741">
        <ele>470</ele>
        <time>2013-02-17T13:10:15Z</time>
      </trkpt>
      <trkpt lat="43.84728" lon="7.33756">
        <ele>470.5</ele>
        <time>2013-02-17T13:10:22Z</time>
      </trkpt>
      <trkpt lat="43.84735" lon="7.33768">
        <ele>470.2</ele>
        <time>2013-02-17T13:10:28Z</time>
      </trkpt>
      <trkpt lat="43.84729" lon="7.33781">
        <ele>469.5</ele>
        <time>2013-02-17T13:10:33Z</time>
      </trkpt>
      <trkpt lat="43.84725" lon="7.3379">
        <ele>468.3</ele>
        <time>2013-02-17T13:10:40Z</time>
      </trkpt>
      <trkpt lat="43.8473" lon="7.33797">
        <ele>466.1</ele>
        <time>2013-02-17T13:10:45Z</time>
      </trkpt>
      <trkpt lat="43.8472" lon="7.33809">
        <ele>465.9</ele>
        <time>2013-02-17T13:10:51Z</time>
      </trkpt>
      <trkpt lat="43.84716" lon="7.33829">
        <ele>464.6</ele>
        <time>2013-02-17T13:10:58Z</time>
      </trkpt>
      <trkpt lat="43.8471" lon="7.33842">
        <ele>465.4</ele>
        <time>2013-02-17T13:11:03Z</time>
      </trkpt>
      <trkpt lat="43.84696" lon="7.33854">
        <ele>464.4</ele>
        <time>2013-02-17T13:11:09Z</time>
      </trkpt>
      <trkpt lat="43.84694" lon="7.33866">
        <ele>465.4</ele>
        <time>2013-02-17T13:11:16Z</time>
      </trkpt>
      <trkpt lat="43.84687" lon="7.33874">
        <ele>464</ele>
        <time>2013-02-17T13:11:22Z</time>
      </trkpt>
      <trkpt lat="43.84682" lon="7.33891">
        <ele>462.4</ele>
        <time>2013-02-17T13:11:27Z</time>
      </trkpt>
      <trkpt lat="43.84678" lon="7.33908">
        <ele>462.6</ele>
        <time>2013-02-17T13:11:33Z</time>
      </trkpt>
      <trkpt lat="43.84679" lon="7.33922">
        <ele>462.7</ele>
        <time>2013-02-17T13:11:39Z</time>
      </trkpt>
      <trkpt lat="43.84668" lon="7.33937">
        <ele>462.7</ele>
        <time>2013-02-17T13:11:45Z</time>
      </trkpt>
      <trkpt lat="43.84653" lon="7.33932">
        <ele>463.6</ele>
        <time>2013-02-17T13:11:51Z</time>
      </trkpt>
      <trkpt lat="43.84645" lon="7.33935">
        <ele>464.4</ele>
        <time>2013-02-17T13:11:57Z</time>
      </trkpt>
      <trkpt lat="43.8465" lon="7.33949">
        <ele>463.7</ele>
        <time>2013-02-17T13:12:02Z</time>
      </trkpt>
      <trkpt lat="43.84639" lon="7.3396">
        <ele>463</ele>
        <time>2013-02-17T13:12:08Z</time>
      </trkpt>
      <trkpt lat="43.84627" lon="7.33967">
        <ele>463.9</ele>
        <time>2013-02-17T13:12:14Z</time>
      </trkpt>
      <trkpt lat="43.84617" lon="7.33966">
        <ele>464.4</ele>
        <time>2013-02-17T13:12:19Z</time>
      </trkpt>
      <trkpt lat="43.84611" lon="7.33966">
        <ele>464.5</ele>
        <time>2013-02-17T13:12:25Z</time>
      </trkpt>
      <trkpt lat="43.84614" lon="7.33982">
        <ele>465.3</ele>
        <time>2013-02-17T13:12:30Z</time>
      </trkpt>
      <trkpt lat="43.84623" lon="7.33995">
        <ele>465.1</ele>
        <time>2013-02-17T13:12:36Z</time>
      </trkpt>
      <trkpt lat="43.84622" lon="7.3401">
        <ele>463.7</ele>
        <time>2013-02-17T13:12:42Z</time>
      </trkpt>
      <trkpt lat="43.84616" lon="7.34011">
        <ele>464.3</ele>
        <time>2013-02-17T13:12:47Z</time>
      </trkpt>
      <trkpt lat="43.84605" lon="7.34025">
        <ele>464.1</ele>
        <time>2013-02-17T13:12:53Z</time>
      </trkpt>
      <trkpt lat="43.84588" lon="7.34029">
        <ele>464.1</ele>
        <time>2013-02-17T13:12:58Z</time>
      </trkpt>
      <trkpt lat="43.84563" lon="7.34027">
        <ele>465.4</ele>
        <time>2013-02-17T13:13:04Z</time>
      </trkpt>
      <trkpt lat="43.84547" lon="7.34037">
        <ele>465</ele>
        <time>2013-02-17T13:13:10Z</time>
      </trkpt>
      <trkpt lat="43.8453" lon="7.34041">
        <ele>464.7</ele>
        <time>2013-02-17T13:13:15Z</time>
      </trkpt>
      <trkpt lat="43.84509" lon="7.34048">
        <ele>465.4</ele>
        <time>2013-02-17T13:13:21Z</time>
      </trkpt>
      <trkpt lat="43.84495" lon="7.34054">
        <ele>463.1</ele>
        <time>2013-02-17T13:13:27Z</time>
      </trkpt>
      <trkpt lat="43.84482" lon="7.34071">
        <ele>461.2</ele>
        <time>2013-02-17T13:13:33Z</time>
      </trkpt>
      <trkpt lat="43.84469" lon="7.34077">
        <ele>459.8</ele>
        <time>2013-02-17T13:13:39Z</time>
      </trkpt>
      <trkpt lat="43.84455" lon="7.34093">
        <ele>457.3</ele>
        <time>2013-02-17T13:13:45Z</time>
      </trkpt>
      <trkpt lat="43.84444" lon="7.34115">
        <ele>456.3</ele>
        <time>2013-02-17T13:13:51Z</time>
      </trkpt>
      <trkpt lat="43.84438" lon="7.34134">
        <ele>456.3</ele>
        <time>2013-02-17T13:13:57Z</time>
      </trkpt>
      <trkpt lat="43.84433" lon="7.34151">
        <ele>455.7</ele>
        <time>2013-02-17T13:14:03Z</time>
      </trkpt>
      <trkpt lat="43.8443" lon="7.34178">
        <ele>453.2</ele>
        <time>2013-02-17T13:14:25Z</time>
      </trkpt>
      <trkpt lat="43.84427" lon="7.34194">
        <ele>453</ele>
        <time>2013-02-17T13:14:30Z</time>
      </trkpt>
      <trkpt lat="43.84408" lon="7.34212">
        <ele>449.7</ele>
        <time>2013-02-17T13:14:36Z</time>
      </trkpt>
      <trkpt lat="43.84381" lon="7.34221">
        <ele>448.8</ele>
        <time>2013-02-17T13:14:42Z</time>
      </trkpt>
      <trkpt lat="43.84351" lon="7.34214">
        <ele>448.4</ele>
        <time>2013-02-17T13:14:48Z</time>
      </trkpt>
      <trkpt lat="43.8433" lon="7.34188">
        <ele>445.8</ele>
        <time>2013-02-17T13:14:53Z</time>
      </trkpt>
      <trkpt lat="43.84319" lon="7.34179">
        <ele>444.1</ele>
        <time>2013-02-17T13:14:59Z</time>
      </trkpt>
      <trkpt lat="43.84317" lon="7.34193">
        <ele>441.4</ele>
        <time>2013-02-17T13:15:05Z</time>
      </trkpt>
      <trkpt lat="43.8431" lon="7.34184">
        <ele>440.4</ele>
        <time>2013-02-17T13:15:10Z</time>
      </trkpt>
      <trkpt lat="43.84311" lon="7.34191">
        <ele>439.2</ele>
        <time>2013-02-17T13:15:15Z</time>
      </trkpt>
      <trkpt lat="43.8428" lon="7.34237">
        <ele>439.2</ele>
        <time>2013-02-17T13:17:48Z</time>
      </trkpt>
      <trkpt lat="43.84287" lon="7.34247">
        <ele>440.3</ele>
        <time>2013-02-17T13:17:59Z</time>
      </trkpt>
      <trkpt lat="43.84286" lon="7.3426">
        <ele>440.6</ele>
        <time>2013-02-17T13:18:04Z</time>
      </trkpt>
      <trkpt lat="43.84277" lon="7.34311">
        <ele>447.2</ele>
        <time>2013-02-17T13:18:38Z</time>
      </trkpt>
      <trkpt lat="43.84273" lon="7.34325">
        <ele>448.8</ele>
        <time>2013-02-17T13:18:47Z</time>
      </trkpt>
      <trkpt lat="43.8426" lon="7.34345">
        <ele>449.7</ele>
        <time>2013-02-17T13:19:53Z</time>
      </trkpt>
      <trkpt lat="43.84259" lon="7.34363">
        <ele>449.5</ele>
        <time>2013-02-17T13:19:59Z</time>
      </trkpt>
      <trkpt lat="43.84253" lon="7.34388">
        <ele>450.3</ele>
        <time>2013-02-17T13:20:04Z</time>
      </trkpt>
      <trkpt lat="43.84236" lon="7.34404">
        <ele>450.1</ele>
        <time>2013-02-17T13:20:09Z</time>
      </trkpt>
      <trkpt lat="43.84211" lon="7.34423">
        <ele>450.6</ele>
        <time>2013-02-17T13:20:15Z</time>
      </trkpt>
      <trkpt lat="43.84193" lon="7.34444">
        <ele>450</ele>
        <time>2013-02-17T13:20:21Z</time>
      </trkpt>
      <trkpt lat="43.84185" lon="7.3446">
        <ele>449.7</ele>
        <time>2013-02-17T13:20:26Z</time>
      </trkpt>
      <trkpt lat="43.84176" lon="7.34475">
        <ele>449.2</ele>
        <time>2013-02-17T13:20:32Z</time>
      </trkpt>
      <trkpt lat="43.84167" lon="7.34487">
        <ele>449.2</ele>
        <time>2013-02-17T13:20:37Z</time>
      </trkpt>
      <trkpt lat="43.84157" lon="7.34504">
        <ele>448.9</ele>
        <time>2013-02-17T13:20:44Z</time>
      </trkpt>
      <trkpt lat="43.84153" lon="7.3452">
        <ele>448.9</ele>
        <time>2013-02-17T13:20:49Z</time>
      </trkpt>
      <trkpt lat="43.84145" lon="7.34536">
        <ele>448.2</ele>
        <time>2013-02-17T13:20:54Z</time>
      </trkpt>
      <trkpt lat="43.84133" lon="7.34544">
        <ele>447.3</ele>
        <time>2013-02-17T13:20:59Z</time>
      </trkpt>
      <trkpt lat="43.84122" lon="7.34557">
        <ele>448.7</ele>
        <time>2013-02-17T13:21:05Z</time>
      </trkpt>
      <trkpt lat="43.84118" lon="7.34577">
        <ele>448.4</ele>
        <time>2013-02-17T13:21:11Z</time>
      </trkpt>
      <trkpt lat="43.84115" lon="7.34598">
        <ele>448.1</ele>
        <time>2013-02-17T13:21:17Z</time>
      </trkpt>
      <trkpt lat="43.84117" lon="7.34617">
        <ele>447.1</ele>
        <time>2013-02-17T13:21:22Z</time>
      </trkpt>
      <trkpt lat="43.84116" lon="7.34644">
        <ele>445.7</ele>
        <time>2013-02-17T13:21:28Z</time>
      </trkpt>
      <trkpt lat="43.84089" lon="7.34663">
        <ele>443.3</ele>
        <time>2013-02-17T13:21:33Z</time>
      </trkpt>
      <trkpt lat="43.84058" lon="7.34695">
        <ele>441</ele>
        <time>2013-02-17T13:21:39Z</time>
      </trkpt>
      <trkpt lat="43.84047" lon="7.34719">
        <ele>440.2</ele>
        <time>2013-02-17T13:21:45Z</time>
      </trkpt>
      <trkpt lat="43.84043" lon="7.34744">
        <ele>438.5</ele>
        <time>2013-02-17T13:21:51Z</time>
      </trkpt>
      <trkpt lat="43.84051" lon="7.34776">
        <ele>436</ele>
        <time>2013-02-17T13:21:57Z</time>
      </trkpt>
      <trkpt lat="43.84054" lon="7.34806">
        <ele>433.2</ele>
        <time>2013-02-17T13:22:03Z</time>
      </trkpt>
      <trkpt lat="43.84015" lon="7.34804">
        <ele>427.8</ele>
        <time>2013-02-17T13:22:09Z</time>
      </trkpt>
      <trkpt lat="43.83977" lon="7.34787">
        <ele>423.3</ele>
        <time>2013-02-17T13:22:15Z</time>
      </trkpt>
      <trkpt lat="43.83932" lon="7.3482">
        <ele>418.5</ele>
        <time>2013-02-17T13:22:21Z</time>
      </trkpt>
      <trkpt lat="43.83907" lon="7.3483">
        <ele>415.6</ele>
        <time>2013-02-17T13:22:26Z</time>
      </trkpt>
      <trkpt lat="43.83886" lon="7.34839">
        <ele>412.6</ele>
        <time>2013-02-17T13:22:31Z</time>
      </trkpt>
      <trkpt lat="43.83873" lon="7.34853">
        <ele>411.8</ele>
        <time>2013-02-17T13:22:37Z</time>
      </trkpt>
      <trkpt lat="43.83864" lon="7.34859">
        <ele>410.6</ele>
        <time>2013-02-17T13:22:43Z</time>
      </trkpt>
      <trkpt lat="43.83849" lon="7.34865">
        <ele>410.6</ele>
        <time>2013-02-17T13:22:48Z</time>
      </trkpt>
      <trkpt lat="43.83833" lon="7.34871">
        <ele>410.8</ele>
        <time>2013-02-17T13:22:54Z</time>
      </trkpt>
      <trkpt lat="43.83814" lon="7.34879">
        <ele>410.6</ele>
        <time>2013-02-17T13:23:00Z</time>
      </trkpt>
      <trkpt lat="43.83801" lon="7.34887">
        <ele>410.5</ele>
        <time>2013-02-17T13:23:05Z</time>
      </trkpt>
      <trkpt lat="43.83784" lon="7.3491">
        <ele>411.5</ele>
        <time>2013-02-17T13:23:11Z</time>
      </trkpt>
      <trkpt lat="43.83776" lon="7.3493">
        <ele>412.1</ele>
        <time>2013-02-17T13:23:17Z</time>
      </trkpt>
      <trkpt lat="43.83772" lon="7.3496">
        <ele>412.8</ele>
        <time>2013-02-17T13:23:22Z</time>
      </trkpt>
      <trkpt lat="43.8377" lon="7.3499">
        <ele>413.5</ele>
        <time>2013-02-17T13:23:27Z</time>
      </trkpt>
      <trkpt lat="43.83757" lon="7.35021">
        <ele>412.1</ele>
        <time>2013-02-17T13:23:32Z</time>
      </trkpt>
      <trkpt lat="43.83747" lon="7.35053">
        <ele>410.9</ele>
        <time>2013-02-17T13:23:38Z</time>
      </trkpt>
      <trkpt lat="43.83736" lon="7.35072">
        <ele>409.6</ele>
        <time>2013-02-17T13:23:44Z</time>
      </trkpt>
      <trkpt lat="43.83732" lon="7.35093">
        <ele>407.7</ele>
        <time>2013-02-17T13:23:50Z</time>
      </trkpt>
      <trkpt lat="43.83724" lon="7.35125">
        <ele>408.3</ele>
        <time>2013-02-17T13:23:56Z</time>
      </trkpt>
      <trkpt lat="43.83701" lon="7.35154">
        <ele>407.6</ele>
        <time>2013-02-17T13:24:02Z</time>
      </trkpt>
      <trkpt lat="43.8368" lon="7.35171">
        <ele>407.1</ele>
        <time>2013-02-17T13:24:07Z</time>
      </trkpt>
      <trkpt lat="43.83662" lon="7.35187">
        <ele>406.7</ele>
        <time>2013-02-17T13:24:13Z</time>
      </trkpt>
      <trkpt lat="43.83642" lon="7.35206">
        <ele>406.2</ele>
        <time>2013-02-17T13:24:19Z</time>
      </trkpt>
      <trkpt lat="43.83621" lon="7.35225">
        <ele>406.6</ele>
        <time>2013-02-17T13:24:25Z</time>
      </trkpt>
      <trkpt lat="43.83605" lon="7.35245">
        <ele>406.6</ele>
        <time>2013-02-17T13:24:30Z</time>
      </trkpt>
      <trkpt lat="43.83591" lon="7.35264">
        <ele>407.4</ele>
        <time>2013-02-17T13:24:35Z</time>
      </trkpt>
      <trkpt lat="43.83571" lon="7.35284">
        <ele>408.3</ele>
        <time>2013-02-17T13:24:41Z</time>
      </trkpt>
      <trkpt lat="43.83555" lon="7.35303">
        <ele>407.5</ele>
        <time>2013-02-17T13:24:47Z</time>
      </trkpt>
      <trkpt lat="43.83544" lon="7.3532">
        <ele>408</ele>
        <time>2013-02-17T13:24:52Z</time>
      </trkpt>
      <trkpt lat="43.83532" lon="7.35327">
        <ele>408.4</ele>
        <time>2013-02-17T13:25:08Z</time>
      </trkpt>
      <trkpt lat="43.83534" lon="7.35339">
        <ele>407.3</ele>
        <time>2013-02-17T13:25:14Z</time>
      </trkpt>
      <trkpt lat="43.83544" lon="7.35354">
        <ele>407.2</ele>
        <time>2013-02-17T13:25:19Z</time>
      </trkpt>
      <trkpt lat="43.83557" lon="7.35373">
        <ele>407.1</ele>
        <time>2013-02-17T13:25:24Z</time>
      </trkpt>
      <trkpt lat="43.83576" lon="7.35397">
        <ele>406.4</ele>
        <time>2013-02-17T13:25:30Z</time>
      </trkpt>
      <trkpt lat="43.83589" lon="7.35419">
        <ele>405.6</ele>
        <time>2013-02-17T13:25:35Z</time>
      </trkpt>
      <trkpt lat="43.836" lon="7.35444">
        <ele>405.3</ele>
        <time>2013-02-17T13:25:41Z</time>
      </trkpt>
      <trkpt lat="43.83613" lon="7.35469">
        <ele>405.4</ele>
        <time>2013-02-17T13:25:47Z</time>
      </trkpt>
      <trkpt lat="43.83622" lon="7.35489">
        <ele>406.1</ele>
        <time>2013-02-17T13:25:53Z</time>
      </trkpt>
      <trkpt lat="43.83634" lon="7.35495">
        <ele>408.7</ele>
        <time>2013-02-17T13:25:59Z</time>
      </trkpt>
      <trkpt lat="43.83634" lon="7.35492">
        <ele>409.8</ele>
        <time>2013-02-17T13:26:05Z</time>
      </trkpt>
      <trkpt lat="43.83623" lon="7.35482">
        <ele>410.2</ele>
        <time>2013-02-17T13:26:10Z</time>
      </trkpt>
      <trkpt lat="43.83613" lon="7.35466">
        <ele>410.5</ele>
        <time>2013-02-17T13:26:15Z</time>
      </trkpt>
      <trkpt lat="43.83604" lon="7.3545">
        <ele>410.7</ele>
        <time>2013-02-17T13:26:21Z</time>
      </trkpt>
      <trkpt lat="43.83595" lon="7.35431">
        <ele>409.8</ele>
        <time>2013-02-17T13:26:27Z</time>
      </trkpt>
      <trkpt lat="43.83587" lon="7.35411">
        <ele>409.5</ele>
        <time>2013-02-17T13:26:33Z</time>
      </trkpt>
      <trkpt lat="43.83576" lon="7.35394">
        <ele>408</ele>
        <time>2013-02-17T13:26:39Z</time>
      </trkpt>
      <trkpt lat="43.83567" lon="7.35379">
        <ele>407.9</ele>
        <time>2013-02-17T13:26:45Z</time>
      </trkpt>
      <trkpt lat="43.8356" lon="7.35364">
        <ele>407.5</ele>
        <time>2013-02-17T13:26:50Z</time>
      </trkpt>
      <trkpt lat="43.8355" lon="7.35346">
        <ele>407.2</ele>
        <time>2013-02-17T13:26:56Z</time>
      </trkpt>
      <trkpt lat="43.8354" lon="7.35334">
        <ele>407.6</ele>
        <time>2013-02-17T13:27:02Z</time>
      </trkpt>
      <trkpt lat="43.83531" lon="7.3533">
        <ele>407.9</ele>
        <time>2013-02-17T13:27:07Z</time>
      </trkpt>
      <trkpt lat="43.83521" lon="7.3533">
        <ele>407.8</ele>
        <time>2013-02-17T13:27:14Z</time>
      </trkpt>
      <trkpt lat="43.83524" lon="7.35346">
        <ele>407.6</ele>
        <time>2013-02-17T13:27:20Z</time>
      </trkpt>
      <trkpt lat="43.83509" lon="7.35361">
        <ele>407.3</ele>
        <time>2013-02-17T13:27:25Z</time>
      </trkpt>
      <trkpt lat="43.83489" lon="7.35393">
        <ele>407.2</ele>
        <time>2013-02-17T13:27:31Z</time>
      </trkpt>
      <trkpt lat="43.83472" lon="7.35428">
        <ele>405.4</ele>
        <time>2013-02-17T13:27:36Z</time>
      </trkpt>
      <trkpt lat="43.83445" lon="7.35456">
        <ele>405</ele>
        <time>2013-02-17T13:27:41Z</time>
      </trkpt>
      <trkpt lat="43.8341" lon="7.3548">
        <ele>406.5</ele>
        <time>2013-02-17T13:27:47Z</time>
      </trkpt>
      <trkpt lat="43.83393" lon="7.35504">
        <ele>406.8</ele>
        <time>2013-02-17T13:27:52Z</time>
      </trkpt>
      <trkpt lat="43.83385" lon="7.35523">
        <ele>406.5</ele>
        <time>2013-02-17T13:27:58Z</time>
      </trkpt>
      <trkpt lat="43.83387" lon="7.35527">
        <ele>403.9</ele>
        <time>2013-02-17T13:28:07Z</time>
      </trkpt>
      <trkpt lat="43.8339" lon="7.35512">
        <ele>401.4</ele>
        <time>2013-02-17T13:28:13Z</time>
      </trkpt>
      <trkpt lat="43.83415" lon="7.35517">
        <ele>405.7</ele>
        <time>2013-02-17T13:28:38Z</time>
      </trkpt>
      <trkpt lat="43.83423" lon="7.35533">
        <ele>406.8</ele>
        <time>2013-02-17T13:28:45Z</time>
      </trkpt>
      <trkpt lat="43.83427" lon="7.35548">
        <ele>408.2</ele>
        <time>2013-02-17T13:28:51Z</time>
      </trkpt>
      <trkpt lat="43.8343" lon="7.35548">
        <ele>408.2</ele>
        <time>2013-02-17T13:28:57Z</time>
      </trkpt>
      <trkpt lat="43.83441" lon="7.35549">
        <ele>408.4</ele>
        <time>2013-02-17T13:29:04Z</time>
      </trkpt>
      <trkpt lat="43.83458" lon="7.35547">
        <ele>407.9</ele>
        <time>2013-02-17T13:29:09Z</time>
      </trkpt>
      <trkpt lat="43.83478" lon="7.35521">
        <ele>406.7</ele>
        <time>2013-02-17T13:29:14Z</time>
      </trkpt>
      <trkpt lat="43.83483" lon="7.35499">
        <ele>402</ele>
        <time>2013-02-17T13:29:21Z</time>
      </trkpt>
      <trkpt lat="43.8351" lon="7.35484">
        <ele>385.3</ele>
        <time>2013-02-17T13:31:47Z</time>
      </trkpt>
      <trkpt lat="43.83496" lon="7.35439">
        <ele>393</ele>
        <time>2013-02-17T13:38:14Z</time>
      </trkpt>
    </trkseg>
  </trk>
</gpx>